<data xmlns:xsi="http://www.w3.org/2001/XMLSchema-instance">
<row _id="1"><Timestamp>2023-07-31 23:55:54</Timestamp><Taupunkt>15.039310344827582</Taupunkt><Temperatur>19.67241379310344</Temperatur><Temperatur2>19.67241379310344</Temperatur2><Wind Chill>19.67241379310344</Wind Chill></row>
<row _id="2"><Timestamp>2023-08-01 23:55:54</Timestamp><Taupunkt>12.987500000000002</Taupunkt><Temperatur>19.298529411764704</Temperatur><Temperatur2>19.298529411764704</Temperatur2><Wind Chill>19.298529411764704</Wind Chill></row>
<row _id="3"><Timestamp>2023-08-02 23:55:54</Timestamp><Taupunkt>14.958156028368794</Taupunkt><Temperatur>19.483687943262424</Temperatur><Temperatur2>19.483687943262424</Temperatur2><Wind Chill>19.483687943262424</Wind Chill></row>
<row _id="4"><Timestamp>2023-08-03 23:55:54</Timestamp><Taupunkt>13.522535211267606</Taupunkt><Temperatur>17.969014084507037</Temperatur><Temperatur2>17.969014084507037</Temperatur2><Wind Chill>17.969014084507037</Wind Chill></row>
<row _id="5"><Timestamp>2023-08-04 23:55:54</Timestamp><Taupunkt>14.238732394366194</Taupunkt><Temperatur>16.259154929577466</Temperatur><Temperatur2>16.259154929577466</Temperatur2><Wind Chill>16.259154929577466</Wind Chill></row>
<row _id="6"><Timestamp>2023-08-05 23:55:54</Timestamp><Taupunkt>13.19071428571429</Taupunkt><Temperatur>17.880714285714287</Temperatur><Temperatur2>17.880714285714287</Temperatur2><Wind Chill>17.835714285714282</Wind Chill></row>
<row _id="7"><Timestamp>2023-08-06 23:55:54</Timestamp><Taupunkt>10.321527777777774</Taupunkt><Temperatur>14.65833333333334</Temperatur><Temperatur2>14.65833333333334</Temperatur2><Wind Chill>14.476388888888895</Wind Chill></row>
<row _id="8"><Timestamp>2023-08-07 23:55:54</Timestamp><Taupunkt>9.809790209790211</Taupunkt><Temperatur>17.241258741258743</Temperatur><Temperatur2>17.241258741258743</Temperatur2><Wind Chill>17.241258741258743</Wind Chill></row>
<row _id="9"><Timestamp>2023-08-08 23:55:54</Timestamp><Taupunkt>11.45390070921986</Taupunkt><Temperatur>19.77943262411349</Temperatur><Temperatur2>19.77943262411349</Temperatur2><Wind Chill>19.77943262411349</Wind Chill></row>
<row _id="10"><Timestamp>2023-08-09 23:55:54</Timestamp><Taupunkt>14.502777777777775</Taupunkt><Temperatur>19.28958333333334</Temperatur><Temperatur2>19.28958333333334</Temperatur2><Wind Chill>19.28958333333334</Wind Chill></row>
<row _id="11"><Timestamp>2023-08-10 23:55:54</Timestamp><Taupunkt>12.453846153846154</Taupunkt><Temperatur>21.28111888111888</Temperatur><Temperatur2>21.28111888111888</Temperatur2><Wind Chill>21.28111888111888</Wind Chill></row>
<row _id="12"><Timestamp>2023-08-11 23:55:54</Timestamp><Taupunkt>17.186524822695038</Taupunkt><Temperatur>25.173758865248217</Temperatur><Temperatur2>25.173758865248217</Temperatur2><Wind Chill>25.173758865248217</Wind Chill></row>
<row _id="13"><Timestamp>2023-08-12 23:55:54</Timestamp><Taupunkt>19.802112676056336</Taupunkt><Temperatur>22.576056338028177</Temperatur><Temperatur2>22.576056338028177</Temperatur2><Wind Chill>22.576056338028177</Wind Chill></row>
<row _id="14"><Timestamp>2023-08-13 23:55:54</Timestamp><Taupunkt>18.944285714285712</Taupunkt><Temperatur>23.485714285714295</Temperatur><Temperatur2>23.485714285714295</Temperatur2><Wind Chill>23.485714285714295</Wind Chill></row>
<row _id="15"><Timestamp>2023-08-14 23:55:54</Timestamp><Taupunkt>19.82887323943661</Taupunkt><Temperatur>25.03169014084507</Temperatur><Temperatur2>25.03169014084507</Temperatur2><Wind Chill>25.03169014084507</Wind Chill></row>
<row _id="16"><Timestamp>2023-08-15 23:55:54</Timestamp><Taupunkt>18.41538461538461</Taupunkt><Temperatur>23.636363636363637</Temperatur><Temperatur2>23.636363636363637</Temperatur2><Wind Chill>23.636363636363637</Wind Chill></row>
<row _id="17"><Timestamp>2023-08-16 23:55:54</Timestamp><Taupunkt>18.478321678321677</Taupunkt><Temperatur>23.25314685314684</Temperatur><Temperatur2>23.25314685314684</Temperatur2><Wind Chill>23.25314685314684</Wind Chill></row>
<row _id="18"><Timestamp>2023-08-17 23:55:54</Timestamp><Taupunkt>19.285106382978732</Taupunkt><Temperatur>23.728368794326254</Temperatur><Temperatur2>23.728368794326254</Temperatur2><Wind Chill>23.728368794326254</Wind Chill></row>
<row _id="19"><Timestamp>2023-08-18 23:55:54</Timestamp><Taupunkt>19.13034482758621</Taupunkt><Temperatur>26.48413793103449</Temperatur><Temperatur2>26.48413793103449</Temperatur2><Wind Chill>26.48413793103449</Wind Chill></row>
<row _id="20"><Timestamp>2023-08-19 23:55:54</Timestamp><Taupunkt>20.027659574468085</Taupunkt><Temperatur>25.978723404255323</Temperatur><Temperatur2>25.978723404255323</Temperatur2><Wind Chill>25.978723404255323</Wind Chill></row>
<row _id="21"><Timestamp>2023-08-20 23:55:54</Timestamp><Taupunkt>19.87112676056338</Taupunkt><Temperatur>27.173943661971833</Temperatur><Temperatur2>27.173943661971833</Temperatur2><Wind Chill>27.173239436619717</Wind Chill></row>
<row _id="22"><Timestamp>2023-08-21 23:55:54</Timestamp><Taupunkt>19.33819444444444</Taupunkt><Temperatur>27.36249999999999</Temperatur><Temperatur2>27.36249999999999</Temperatur2><Wind Chill>27.36249999999999</Wind Chill></row>
<row _id="23"><Timestamp>2023-08-22 23:55:54</Timestamp><Taupunkt>17.50845070422534</Taupunkt><Temperatur>26.335915492957756</Temperatur><Temperatur2>26.335915492957756</Temperatur2><Wind Chill>26.335915492957756</Wind Chill></row>
<row _id="24"><Timestamp>2023-08-23 23:55:54</Timestamp><Taupunkt>16.26906474820144</Taupunkt><Temperatur>24.98129496402878</Temperatur><Temperatur2>24.98129496402878</Temperatur2><Wind Chill>24.98129496402878</Wind Chill></row>
<row _id="25"><Timestamp>2023-08-24 23:55:54</Timestamp><Taupunkt>19.337062937062942</Taupunkt><Temperatur>23.665734265734272</Temperatur><Temperatur2>23.665734265734272</Temperatur2><Wind Chill>23.665734265734272</Wind Chill></row>
<row _id="26"><Timestamp>2023-08-25 23:55:54</Timestamp><Taupunkt>17.96853146853147</Taupunkt><Temperatur>22.586713286713287</Temperatur><Temperatur2>22.586713286713287</Temperatur2><Wind Chill>22.586713286713287</Wind Chill></row>
<row _id="27"><Timestamp>2023-08-26 23:55:54</Timestamp><Taupunkt>14.736111111111105</Taupunkt><Temperatur>18.671527777777786</Temperatur><Temperatur2>18.671527777777786</Temperatur2><Wind Chill>18.671527777777786</Wind Chill></row>
<row _id="28"><Timestamp>2023-08-27 23:55:54</Timestamp><Taupunkt>13.532394366197188</Taupunkt><Temperatur>17.023239436619715</Temperatur><Temperatur2>17.023239436619715</Temperatur2><Wind Chill>17.023239436619715</Wind Chill></row>
<row _id="29"><Timestamp>2023-08-28 23:55:54</Timestamp><Taupunkt>12.028873239436614</Taupunkt><Temperatur>15.834507042253522</Temperatur><Temperatur2>15.834507042253522</Temperatur2><Wind Chill>15.834507042253522</Wind Chill></row>
<row _id="30"><Timestamp>2023-08-29 23:55:54</Timestamp><Taupunkt>12.69214285714286</Taupunkt><Temperatur>16.489285714285725</Temperatur><Temperatur2>16.489285714285725</Temperatur2><Wind Chill>16.489285714285725</Wind Chill></row>
<row _id="31"><Timestamp>2023-08-30 23:55:54</Timestamp><Taupunkt>12.396551724137927</Taupunkt><Temperatur>17.197241379310352</Temperatur><Temperatur2>17.197241379310352</Temperatur2><Wind Chill>17.197241379310352</Wind Chill></row>
<row _id="32"><Timestamp>2023-08-31 23:55:54</Timestamp><Taupunkt>13.217361111111112</Taupunkt><Temperatur>17.75555555555555</Temperatur><Temperatur2>17.75555555555555</Temperatur2><Wind Chill>17.75555555555555</Wind Chill></row>
<row _id="33"><Timestamp>2023-09-01 23:55:54</Timestamp><Taupunkt>15.434931506849312</Taupunkt><Temperatur>19.693835616438353</Temperatur><Temperatur2>19.693835616438353</Temperatur2><Wind Chill>19.693835616438353</Wind Chill></row>
<row _id="34"><Timestamp>2023-09-02 23:55:54</Timestamp><Taupunkt>16.278321678321678</Taupunkt><Temperatur>21.874825174825183</Temperatur><Temperatur2>21.874825174825183</Temperatur2><Wind Chill>21.874825174825183</Wind Chill></row>
<row _id="35"><Timestamp>2023-09-03 23:55:54</Timestamp><Taupunkt>15.337499999999999</Taupunkt><Temperatur>20.896527777777788</Temperatur><Temperatur2>20.896527777777788</Temperatur2><Wind Chill>20.896527777777788</Wind Chill></row>
<row _id="36"><Timestamp>2023-09-04 23:55:54</Timestamp><Taupunkt>11.550000000000002</Taupunkt><Temperatur>23.11014492753624</Temperatur><Temperatur2>23.11014492753624</Temperatur2><Wind Chill>23.11014492753624</Wind Chill></row>
<row _id="37"><Timestamp>2023-09-05 23:55:54</Timestamp><Taupunkt>12.897916666666665</Taupunkt><Temperatur>21.97291666666665</Temperatur><Temperatur2>21.97291666666665</Temperatur2><Wind Chill>21.97291666666665</Wind Chill></row>
<row _id="38"><Timestamp>2023-09-06 23:55:54</Timestamp><Taupunkt>13.432624113475182</Taupunkt><Temperatur>21.848226950354615</Temperatur><Temperatur2>21.848226950354615</Temperatur2><Wind Chill>21.848226950354615</Wind Chill></row>
<row _id="39"><Timestamp>2023-09-07 23:55:54</Timestamp><Taupunkt>15.304225352112676</Taupunkt><Temperatur>22.813380281690147</Temperatur><Temperatur2>22.813380281690147</Temperatur2><Wind Chill>22.813380281690147</Wind Chill></row>
<row _id="40"><Timestamp>2023-09-08 23:55:54</Timestamp><Taupunkt>17.251408450704226</Taupunkt><Temperatur>23.446478873239435</Temperatur><Temperatur2>23.446478873239435</Temperatur2><Wind Chill>23.446478873239435</Wind Chill></row>
<row _id="41"><Timestamp>2023-09-09 23:55:54</Timestamp><Taupunkt>17.17132867132867</Taupunkt><Temperatur>23.839160839160847</Temperatur><Temperatur2>23.839160839160847</Temperatur2><Wind Chill>23.839160839160847</Wind Chill></row>
<row _id="42"><Timestamp>2023-09-10 23:55:54</Timestamp><Taupunkt>15.094444444444443</Taupunkt><Temperatur>23.41527777777778</Temperatur><Temperatur2>23.41527777777778</Temperatur2><Wind Chill>23.41527777777778</Wind Chill></row>
<row _id="43"><Timestamp>2023-09-11 23:55:54</Timestamp><Taupunkt>16.396376811594212</Taupunkt><Temperatur>24.289855072463777</Temperatur><Temperatur2>24.289855072463777</Temperatur2><Wind Chill>24.289855072463777</Wind Chill></row>
<row _id="44"><Timestamp>2023-09-12 23:55:54</Timestamp><Taupunkt>15.533333333333323</Taupunkt><Temperatur>24.30138888888889</Temperatur><Temperatur2>24.30138888888889</Temperatur2><Wind Chill>24.30138888888889</Wind Chill></row>
<row _id="45"><Timestamp>2023-09-13 23:55:54</Timestamp><Taupunkt>13.713888888888892</Taupunkt><Temperatur>19.484722222222228</Temperatur><Temperatur2>19.484722222222228</Temperatur2><Wind Chill>19.482638888888893</Wind Chill></row>
<row _id="46"><Timestamp>2023-09-14 23:55:54</Timestamp><Taupunkt>11.127777777777778</Taupunkt><Temperatur>17.282638888888883</Temperatur><Temperatur2>17.282638888888883</Temperatur2><Wind Chill>17.282638888888883</Wind Chill></row>
<row _id="47"><Timestamp>2023-09-15 23:55:54</Timestamp><Taupunkt>14.418055555555554</Taupunkt><Temperatur>20.69583333333333</Temperatur><Temperatur2>20.69583333333333</Temperatur2><Wind Chill>20.69583333333333</Wind Chill></row>
<row _id="48"><Timestamp>2023-09-16 23:55:54</Timestamp><Taupunkt>17.034027777777784</Taupunkt><Temperatur>22.261111111111113</Temperatur><Temperatur2>22.261111111111113</Temperatur2><Wind Chill>22.261111111111113</Wind Chill></row>
<row _id="49"><Timestamp>2023-09-17 23:55:54</Timestamp><Taupunkt>16.639160839160834</Taupunkt><Temperatur>23.52097902097903</Temperatur><Temperatur2>23.52097902097903</Temperatur2><Wind Chill>23.52097902097903</Wind Chill></row>
<row _id="50"><Timestamp>2023-09-18 23:55:54</Timestamp><Taupunkt>14.89027777777778</Taupunkt><Temperatur>19.051388888888894</Temperatur><Temperatur2>19.051388888888894</Temperatur2><Wind Chill>19.051388888888894</Wind Chill></row>
<row _id="51"><Timestamp>2023-09-19 23:55:54</Timestamp><Taupunkt>11.622916666666672</Taupunkt><Temperatur>18.6076388888889</Temperatur><Temperatur2>18.6076388888889</Temperatur2><Wind Chill>18.6076388888889</Wind Chill></row>
<row _id="52"><Timestamp>2023-09-20 23:55:54</Timestamp><Taupunkt>12.568055555555558</Taupunkt><Temperatur>20.066666666666674</Temperatur><Temperatur2>20.066666666666674</Temperatur2><Wind Chill>20.066666666666674</Wind Chill></row>
<row _id="53"><Timestamp>2023-09-21 23:55:54</Timestamp><Taupunkt>14.046153846153844</Taupunkt><Temperatur>18.031468531468533</Temperatur><Temperatur2>18.031468531468533</Temperatur2><Wind Chill>18.020279720279724</Wind Chill></row>
<row _id="54"><Timestamp>2023-09-22 23:55:54</Timestamp><Taupunkt>9.989436619718312</Taupunkt><Temperatur>15.306338028169018</Temperatur><Temperatur2>15.306338028169018</Temperatur2><Wind Chill>15.291549295774653</Wind Chill></row>
<row _id="55"><Timestamp>2023-09-23 23:55:54</Timestamp><Taupunkt>8.8556338028169</Taupunkt><Temperatur>13.608450704225353</Temperatur><Temperatur2>13.608450704225353</Temperatur2><Wind Chill>13.511971830985916</Wind Chill></row>
<row _id="56"><Timestamp>2023-09-24 23:55:54</Timestamp><Taupunkt>7.356115107913668</Taupunkt><Temperatur>14</Temperatur><Temperatur2>14</Temperatur2><Wind Chill>13.848920863309353</Wind Chill></row>
<row _id="57"><Timestamp>2023-09-25 23:55:54</Timestamp><Taupunkt>9.664028776978418</Taupunkt><Temperatur>15.464028776978417</Temperatur><Temperatur2>15.464028776978417</Temperatur2><Wind Chill>15.400000000000002</Wind Chill></row>
<row _id="58"><Timestamp>2023-09-26 23:55:54</Timestamp><Taupunkt>12.211347517730497</Taupunkt><Temperatur>16.800709219858163</Temperatur><Temperatur2>16.800709219858163</Temperatur2><Wind Chill>16.796453900709228</Wind Chill></row>
<row _id="59"><Timestamp>2023-09-27 23:55:54</Timestamp><Taupunkt>14.111643835616437</Taupunkt><Temperatur>18.559589041095883</Temperatur><Temperatur2>18.559589041095883</Temperatur2><Wind Chill>18.559589041095883</Wind Chill></row>
<row _id="60"><Timestamp>2023-09-28 23:55:54</Timestamp><Taupunkt>13.85454545454545</Taupunkt><Temperatur>20.285314685314674</Temperatur><Temperatur2>20.285314685314674</Temperatur2><Wind Chill>20.285314685314674</Wind Chill></row>
<row _id="61"><Timestamp>2023-09-29 23:55:54</Timestamp><Taupunkt>14.15833333333333</Taupunkt><Temperatur>19.963194444444444</Temperatur><Temperatur2>19.963194444444444</Temperatur2><Wind Chill>19.963194444444444</Wind Chill></row>
<row _id="62"><Timestamp>2023-09-30 23:55:54</Timestamp><Taupunkt>10.902097902097903</Taupunkt><Temperatur>16.076923076923073</Temperatur><Temperatur2>16.076923076923073</Temperatur2><Wind Chill>16.053146853146842</Wind Chill></row>
<row _id="63"><Timestamp>2023-10-01 23:55:54</Timestamp><Taupunkt>12.48925619834711</Taupunkt><Temperatur>18.137190082644633</Temperatur><Temperatur2>18.137190082644633</Temperatur2><Wind Chill>18.137190082644633</Wind Chill></row>
<row _id="64"><Timestamp>2023-10-02 23:55:54</Timestamp><Taupunkt>13.61931034482759</Taupunkt><Temperatur>20.286896551724148</Temperatur><Temperatur2>20.286896551724148</Temperatur2><Wind Chill>20.286896551724148</Wind Chill></row>
<row _id="65"><Timestamp>2023-10-03 23:55:54</Timestamp><Taupunkt>11.772727272727268</Taupunkt><Temperatur>15.832575757575755</Temperatur><Temperatur2>15.832575757575755</Temperatur2><Wind Chill>15.793181818181823</Wind Chill></row>
<row _id="66"><Timestamp>2023-10-04 23:55:54</Timestamp><Taupunkt>8.488194444444444</Taupunkt><Temperatur>13.152083333333334</Temperatur><Temperatur2>13.152083333333334</Temperatur2><Wind Chill>13.027083333333334</Wind Chill></row>
<row _id="67"><Timestamp>2023-10-05 23:55:54</Timestamp><Taupunkt>8.341379310344825</Taupunkt><Temperatur>12.342068965517248</Temperatur><Temperatur2>12.342068965517248</Temperatur2><Wind Chill>12.165517241379312</Wind Chill></row>
<row _id="68"><Timestamp>2023-10-06 23:55:54</Timestamp><Taupunkt>8.464583333333339</Taupunkt><Temperatur>13.035416666666665</Temperatur><Temperatur2>13.035416666666665</Temperatur2><Wind Chill>12.885416666666664</Wind Chill></row>
<row _id="69"><Timestamp>2023-10-07 23:55:54</Timestamp><Taupunkt>7.837500000000002</Taupunkt><Temperatur>16.447916666666657</Temperatur><Temperatur2>16.447916666666657</Temperatur2><Wind Chill>16.443055555555546</Wind Chill></row>
<row _id="70"><Timestamp>2023-10-08 23:55:54</Timestamp><Taupunkt>10.617361111111112</Taupunkt><Temperatur>17.452083333333338</Temperatur><Temperatur2>17.452083333333338</Temperatur2><Wind Chill>17.452083333333338</Wind Chill></row>
<row _id="71"><Timestamp>2023-10-09 23:55:54</Timestamp><Taupunkt>11.752083333333331</Taupunkt><Temperatur>18.032638888888886</Temperatur><Temperatur2>18.032638888888886</Temperatur2><Wind Chill>18.032638888888886</Wind Chill></row>
<row _id="72"><Timestamp>2023-10-10 23:55:54</Timestamp><Taupunkt>11.238620689655173</Taupunkt><Temperatur>17.253103448275862</Temperatur><Temperatur2>17.253103448275862</Temperatur2><Wind Chill>17.251034482758623</Wind Chill></row>
<row _id="73"><Timestamp>2023-10-11 23:55:54</Timestamp><Taupunkt>11.782068965517254</Taupunkt><Temperatur>20.9096551724138</Temperatur><Temperatur2>20.9096551724138</Temperatur2><Wind Chill>20.9096551724138</Wind Chill></row>
<row _id="74"><Timestamp>2023-10-12 23:55:54</Timestamp><Taupunkt>10.938888888888885</Taupunkt><Temperatur>20.54583333333334</Temperatur><Temperatur2>20.54583333333334</Temperatur2><Wind Chill>20.54583333333334</Wind Chill></row>
<row _id="75"><Timestamp>2023-10-13 23:55:54</Timestamp><Taupunkt>9.97887323943662</Taupunkt><Temperatur>23.116901408450705</Temperatur><Temperatur2>23.116901408450705</Temperatur2><Wind Chill>23.10774647887324</Wind Chill></row>
<row _id="76"><Timestamp>2023-10-14 23:55:54</Timestamp><Taupunkt>7.956097560975608</Taupunkt><Temperatur>12.974390243902437</Temperatur><Temperatur2>12.974390243902437</Temperatur2><Wind Chill>12.814634146341465</Wind Chill></row>
<row _id="77"><Timestamp>2023-10-15 23:55:54</Timestamp><Taupunkt>1.8736111111111111</Taupunkt><Temperatur>7.556944444444442</Temperatur><Temperatur2>7.556944444444442</Temperatur2><Wind Chill>6.820138888888888</Wind Chill></row>
<row _id="78"><Timestamp>2023-10-16 23:55:54</Timestamp><Taupunkt>2.1776223776223795</Taupunkt><Temperatur>8.12097902097902</Temperatur><Temperatur2>8.12097902097902</Temperatur2><Wind Chill>7.266433566433566</Wind Chill></row>
<row _id="79"><Timestamp>2023-10-17 23:55:54</Timestamp><Taupunkt>4.246153846153847</Taupunkt><Temperatur>8.353846153846153</Temperatur><Temperatur2>8.353846153846153</Temperatur2><Wind Chill>7.775524475524477</Wind Chill></row>
<row _id="80"><Timestamp>2023-10-18 23:55:54</Timestamp><Taupunkt>9.06153846153846</Taupunkt><Temperatur>10.854545454545454</Temperatur><Temperatur2>10.854545454545454</Temperatur2><Wind Chill>10.704195804195802</Wind Chill></row>
<row _id="81"><Timestamp>2023-10-19 23:55:54</Timestamp><Taupunkt>14.212676056338031</Taupunkt><Temperatur>15.129577464788737</Temperatur><Temperatur2>15.129577464788737</Temperatur2><Wind Chill>15.128169014084513</Wind Chill></row>
<row _id="82"><Timestamp>2023-10-20 23:55:54</Timestamp><Taupunkt>11.859027777777778</Taupunkt><Temperatur>15.805555555555555</Temperatur><Temperatur2>15.805555555555555</Temperatur2><Wind Chill>15.789583333333326</Wind Chill></row>
<row _id="83"><Timestamp>2023-10-21 23:55:54</Timestamp><Taupunkt>7.789436619718309</Taupunkt><Temperatur>14.181690140845067</Temperatur><Temperatur2>14.181690140845067</Temperatur2><Wind Chill>14.132394366197179</Wind Chill></row>
<row _id="84"><Timestamp>2023-10-22 23:55:54</Timestamp><Taupunkt>7.188194444444441</Taupunkt><Temperatur>11.40972222222222</Temperatur><Temperatur2>11.40972222222222</Temperatur2><Wind Chill>11.14444444444445</Wind Chill></row>
<row _id="85"><Timestamp>2023-10-23 23:55:54</Timestamp><Taupunkt>10.361971830985924</Taupunkt><Temperatur>11.701408450704232</Temperatur><Temperatur2>11.701408450704232</Temperatur2><Wind Chill>11.64366197183099</Wind Chill></row>
<row _id="86"><Timestamp>2023-10-24 23:55:54</Timestamp><Taupunkt>10.371724137931036</Taupunkt><Temperatur>11.164827586206892</Temperatur><Temperatur2>11.164827586206892</Temperatur2><Wind Chill>10.992413793103443</Wind Chill></row>
<row _id="87"><Timestamp>2023-10-25 23:55:54</Timestamp><Taupunkt>10.414583333333335</Taupunkt><Temperatur>12.65972222222222</Temperatur><Temperatur2>12.65972222222222</Temperatur2><Wind Chill>12.51597222222222</Wind Chill></row>
<row _id="88"><Timestamp>2023-10-26 23:55:54</Timestamp><Taupunkt>10.80985915492957</Taupunkt><Temperatur>12.521126760563385</Temperatur><Temperatur2>12.521126760563385</Temperatur2><Wind Chill>12.378873239436619</Wind Chill></row>
<row _id="89"><Timestamp>2023-10-27 23:55:54</Timestamp><Taupunkt>9.002777777777785</Taupunkt><Temperatur>12.472222222222218</Temperatur><Temperatur2>12.472222222222218</Temperatur2><Wind Chill>12.227083333333333</Wind Chill></row>
<row _id="90"><Timestamp>2023-10-28 23:55:54</Timestamp><Taupunkt>10.025874125874132</Taupunkt><Temperatur>12.368531468531474</Temperatur><Temperatur2>12.368531468531474</Temperatur2><Wind Chill>12.346853146853148</Wind Chill></row>
<row _id="91"><Timestamp>2023-10-29 22:55:54</Timestamp><Taupunkt>12.01180555555556</Taupunkt><Temperatur>13.103472222222218</Temperatur><Temperatur2>13.103472222222218</Temperatur2><Wind Chill>13.083333333333329</Wind Chill></row>
<row _id="92"><Timestamp>2023-10-30 22:55:54</Timestamp><Taupunkt>11.079020979020983</Taupunkt><Temperatur>12.899999999999999</Temperatur><Temperatur2>12.899999999999999</Temperatur2><Wind Chill>12.733566433566438</Wind Chill></row>
<row _id="93"><Timestamp>2023-10-31 22:55:54</Timestamp><Taupunkt>9.377083333333337</Taupunkt><Temperatur>12.15972222222222</Temperatur><Temperatur2>12.15972222222222</Temperatur2><Wind Chill>12.120833333333335</Wind Chill></row>
<row _id="94"><Timestamp>2023-11-01 22:55:54</Timestamp><Taupunkt>7.736805555555558</Taupunkt><Temperatur>12.964583333333334</Temperatur><Temperatur2>12.964583333333334</Temperatur2><Wind Chill>12.871527777777779</Wind Chill></row>
<row _id="95"><Timestamp>2023-11-02 22:55:54</Timestamp><Taupunkt>5.852083333333332</Taupunkt><Temperatur>10.15208333333333</Temperatur><Temperatur2>10.15208333333333</Temperatur2><Wind Chill>9.785416666666656</Wind Chill></row>
<row _id="96"><Timestamp>2023-11-03 22:55:54</Timestamp><Taupunkt>4.589583333333334</Taupunkt><Temperatur>8.643055555555556</Temperatur><Temperatur2>8.643055555555556</Temperatur2><Wind Chill>8.125000000000004</Wind Chill></row>
<row _id="97"><Timestamp>2023-11-04 22:55:54</Timestamp><Taupunkt>6.706474820143889</Taupunkt><Temperatur>12.023021582733815</Temperatur><Temperatur2>12.023021582733815</Temperatur2><Wind Chill>11.49352517985612</Wind Chill></row>
<row _id="98"><Timestamp>2023-11-05 22:55:54</Timestamp><Taupunkt>7.463432835820901</Taupunkt><Temperatur>11.198507462686571</Temperatur><Temperatur2>11.198507462686571</Temperatur2><Wind Chill>10.579850746268654</Wind Chill></row>
<row _id="99"><Timestamp>2023-11-06 22:55:54</Timestamp><Taupunkt>6.913194444444443</Taupunkt><Temperatur>10.45416666666667</Temperatur><Temperatur2>10.45416666666667</Temperatur2><Wind Chill>10.034027777777782</Wind Chill></row>
<row _id="100"><Timestamp>2023-11-07 22:55:54</Timestamp><Taupunkt>5.688888888888885</Taupunkt><Temperatur>8.613888888888887</Temperatur><Temperatur2>8.613888888888887</Temperatur2><Wind Chill>8.01041666666667</Wind Chill></row>
<row _id="101"><Timestamp>2023-11-08 22:55:54</Timestamp><Taupunkt>4.524305555555556</Taupunkt><Temperatur>8.246527777777782</Temperatur><Temperatur2>8.246527777777782</Temperatur2><Wind Chill>7.726388888888888</Wind Chill></row>
<row _id="102"><Timestamp>2023-11-09 22:55:54</Timestamp><Taupunkt>6.66</Taupunkt><Temperatur>9.662758620689656</Temperatur><Temperatur2>9.662758620689656</Temperatur2><Wind Chill>9.121379310344826</Wind Chill></row>
<row _id="103"><Timestamp>2023-11-10 22:55:54</Timestamp><Taupunkt>5.036805555555559</Taupunkt><Temperatur>8.694444444444446</Temperatur><Temperatur2>8.694444444444446</Temperatur2><Wind Chill>7.597916666666669</Wind Chill></row>
<row _id="104"><Timestamp>2023-11-11 22:55:54</Timestamp><Taupunkt>3.663380281690143</Taupunkt><Temperatur>7.1704225352112685</Temperatur><Temperatur2>7.1704225352112685</Temperatur2><Wind Chill>6.330985915492957</Wind Chill></row>
<row _id="105"><Timestamp>2023-11-12 22:55:54</Timestamp><Taupunkt>7.225694444444445</Taupunkt><Temperatur>8.762499999999998</Temperatur><Temperatur2>8.762499999999998</Temperatur2><Wind Chill>8.274305555555557</Wind Chill></row>
<row _id="106"><Timestamp>2023-11-13 22:55:54</Timestamp><Taupunkt>10.481944444444444</Taupunkt><Temperatur>13.623611111111115</Temperatur><Temperatur2>13.623611111111115</Temperatur2><Wind Chill>13.425694444444447</Wind Chill></row>
<row _id="107"><Timestamp>2023-11-14 22:55:54</Timestamp><Taupunkt>8.131944444444445</Taupunkt><Temperatur>11.540277777777781</Temperatur><Temperatur2>11.540277777777781</Temperatur2><Wind Chill>11.017361111111107</Wind Chill></row>
<row _id="108"><Timestamp>2023-11-15 22:55:54</Timestamp><Taupunkt>6.704827586206894</Taupunkt><Temperatur>10.080000000000004</Temperatur><Temperatur2>10.080000000000004</Temperatur2><Wind Chill>9.588965517241375</Wind Chill></row>
<row _id="109"><Timestamp>2023-11-16 22:55:54</Timestamp><Taupunkt>6.570000000000004</Taupunkt><Temperatur>7.5728571428571465</Temperatur><Temperatur2>7.5728571428571465</Temperatur2><Wind Chill>6.929285714285716</Wind Chill></row>
<row _id="110"><Timestamp>2023-11-17 22:55:54</Timestamp><Taupunkt>5.591608391608388</Taupunkt><Temperatur>6.513986013986011</Temperatur><Temperatur2>6.513986013986011</Temperatur2><Wind Chill>5.804195804195801</Wind Chill></row>
<row _id="111"><Timestamp>2023-11-18 22:55:54</Timestamp><Taupunkt>8.094444444444441</Taupunkt><Temperatur>10.019444444444444</Temperatur><Temperatur2>10.019444444444444</Temperatur2><Wind Chill>9.556944444444447</Wind Chill></row>
<row _id="112"><Timestamp>2023-11-19 22:55:54</Timestamp><Taupunkt>8.23776223776224</Taupunkt><Temperatur>13.386013986013984</Temperatur><Temperatur2>13.386013986013984</Temperatur2><Wind Chill>13.114685314685318</Wind Chill></row>
<row _id="113"><Timestamp>2023-11-20 22:55:54</Timestamp><Taupunkt>7.860416666666666</Taupunkt><Temperatur>9.820138888888883</Temperatur><Temperatur2>9.820138888888883</Temperatur2><Wind Chill>9.429861111111121</Wind Chill></row>
<row _id="114"><Timestamp>2023-11-21 22:55:54</Timestamp><Taupunkt>5.044444444444442</Taupunkt><Temperatur>7.082638888888887</Temperatur><Temperatur2>7.082638888888887</Temperatur2><Wind Chill>6.203472222222221</Wind Chill></row>
<row _id="115"><Timestamp>2023-11-22 22:55:54</Timestamp><Taupunkt>-1.207638888888888</Taupunkt><Temperatur>1.9180555555555543</Temperatur><Temperatur2>1.9180555555555543</Temperatur2><Wind Chill>0.43472222222222257</Wind Chill></row>
<row _id="116"><Timestamp>2023-11-23 22:55:54</Timestamp><Taupunkt>4.260416666666666</Taupunkt><Temperatur>7.0840277777777825</Temperatur><Temperatur2>7.0840277777777825</Temperatur2><Wind Chill>5.972222222222222</Wind Chill></row>
<row _id="117"><Timestamp>2023-11-24 22:55:54</Timestamp><Taupunkt>1.4590277777777776</Taupunkt><Temperatur>4.81875</Temperatur><Temperatur2>4.81875</Temperatur2><Wind Chill>3.526388888888893</Wind Chill></row>
<row _id="118"><Timestamp>2023-11-25 22:55:54</Timestamp><Taupunkt>2.1062937062937057</Taupunkt><Temperatur>4.286713286713289</Temperatur><Temperatur2>4.286713286713289</Temperatur2><Wind Chill>2.8412587412587405</Wind Chill></row>
<row _id="119"><Timestamp>2023-11-26 22:55:54</Timestamp><Taupunkt>2.2413793103448265</Taupunkt><Temperatur>4.376551724137934</Temperatur><Temperatur2>4.376551724137934</Temperatur2><Wind Chill>3.353793103448276</Wind Chill></row>
<row _id="120"><Timestamp>2023-11-27 22:55:54</Timestamp><Taupunkt>2.285915492957747</Taupunkt><Temperatur>4.438732394366196</Temperatur><Temperatur2>4.438732394366196</Temperatur2><Wind Chill>2.8922535211267597</Wind Chill></row>
<row _id="121"><Timestamp>2023-11-28 22:55:54</Timestamp><Taupunkt>-2.002816901408451</Taupunkt><Temperatur>2.1676056338028165</Temperatur><Temperatur2>2.1676056338028165</Temperatur2><Wind Chill>0.7521126760563381</Wind Chill></row>
<row _id="122"><Timestamp>2023-11-29 22:55:54</Timestamp><Taupunkt>-0.5020689655172412</Taupunkt><Temperatur>2.0144827586206895</Temperatur><Temperatur2>2.0144827586206895</Temperatur2><Wind Chill>0.6096551724137922</Wind Chill></row>
<row _id="123"><Timestamp>2023-11-30 22:55:54</Timestamp><Taupunkt>0.4999999999999998</Taupunkt><Temperatur>1.8999999999999975</Temperatur><Temperatur2>1.8999999999999975</Temperatur2><Wind Chill>0.5562500000000007</Wind Chill></row>
<row _id="124"><Timestamp>2023-12-01 22:55:54</Timestamp><Taupunkt>-0.9321678321678318</Taupunkt><Temperatur>0.44545454545454544</Temperatur><Temperatur2>0.44545454545454544</Temperatur2><Wind Chill>-1.616083916083916</Wind Chill></row>
<row _id="125"><Timestamp>2023-12-02 22:55:54</Timestamp><Taupunkt>-5.436428571428573</Taupunkt><Temperatur>-1.6735714285714285</Temperatur><Temperatur2>-1.6735714285714285</Temperatur2><Wind Chill>-3.514285714285713</Wind Chill></row>
<row _id="126"><Timestamp>2023-12-03 22:55:54</Timestamp><Taupunkt>-4.404225352112674</Taupunkt><Temperatur>-1.6408450704225352</Temperatur><Temperatur2>-1.6408450704225352</Temperatur2><Wind Chill>-3.461971830985914</Wind Chill></row>
<row _id="127"><Timestamp>2023-12-04 22:55:54</Timestamp><Taupunkt>0.5208333333333331</Taupunkt><Temperatur>2.400694444444444</Temperatur><Temperatur2>2.400694444444444</Temperatur2><Wind Chill>1.0520833333333328</Wind Chill></row>
<row _id="128"><Timestamp>2023-12-05 22:55:54</Timestamp><Taupunkt>3.4152777777777765</Taupunkt><Temperatur>5.555555555555558</Temperatur><Temperatur2>5.555555555555558</Temperatur2><Wind Chill>4.280555555555555</Wind Chill></row>
<row _id="129"><Timestamp>2023-12-06 22:55:54</Timestamp><Taupunkt>1.5489510489510496</Taupunkt><Temperatur>3.514685314685314</Temperatur><Temperatur2>3.514685314685314</Temperatur2><Wind Chill>2.3825174825174815</Wind Chill></row>
<row _id="130"><Timestamp>2023-12-07 22:55:54</Timestamp><Taupunkt>1.0853146853146853</Taupunkt><Temperatur>1.690909090909091</Temperatur><Temperatur2>1.690909090909091</Temperatur2><Wind Chill>0.32307692307692293</Wind Chill></row>
<row _id="131"><Timestamp>2023-12-08 22:55:54</Timestamp><Taupunkt>6.1055172413793075</Taupunkt><Temperatur>6.933793103448277</Temperatur><Temperatur2>6.933793103448277</Temperatur2><Wind Chill>6.268275862068963</Wind Chill></row>
<row _id="132"><Timestamp>2023-12-09 22:55:54</Timestamp><Taupunkt>6.02</Taupunkt><Temperatur>9.380689655172405</Temperatur><Temperatur2>9.380689655172405</Temperatur2><Wind Chill>8.58344827586207</Wind Chill></row>
<row _id="133"><Timestamp>2023-12-10 22:55:54</Timestamp><Taupunkt>6.325694444444447</Taupunkt><Temperatur>10.574305555555547</Temperatur><Temperatur2>10.574305555555547</Temperatur2><Wind Chill>10.048611111111107</Wind Chill></row>
<row _id="134"><Timestamp>2023-12-11 22:55:54</Timestamp><Taupunkt>6.204195804195801</Taupunkt><Temperatur>10.413986013986014</Temperatur><Temperatur2>10.413986013986014</Temperatur2><Wind Chill>9.893006993006997</Wind Chill></row>
<row _id="135"><Timestamp>2023-12-12 22:55:54</Timestamp><Taupunkt>8.797222222222224</Taupunkt><Temperatur>10.027777777777784</Temperatur><Temperatur2>10.027777777777784</Temperatur2><Wind Chill>9.729166666666671</Wind Chill></row>
<row _id="136"><Timestamp>2023-12-13 22:55:54</Timestamp><Taupunkt>7.112499999999999</Taupunkt><Temperatur>8.170138888888895</Temperatur><Temperatur2>8.170138888888895</Temperatur2><Wind Chill>7.681250000000009</Wind Chill></row>
<row _id="137"><Timestamp>2023-12-14 22:55:54</Timestamp><Taupunkt>5.001398601398605</Taupunkt><Temperatur>7.127272727272729</Temperatur><Temperatur2>7.127272727272729</Temperatur2><Wind Chill>6.490909090909094</Wind Chill></row>
<row _id="138"><Timestamp>2023-12-15 22:55:54</Timestamp><Taupunkt>4.706250000000001</Taupunkt><Temperatur>6.87986111111111</Temperatur><Temperatur2>6.87986111111111</Temperatur2><Wind Chill>6.206944444444442</Wind Chill></row>
<row _id="139"><Timestamp>2023-12-16 22:55:54</Timestamp><Taupunkt>1.7062499999999998</Taupunkt><Temperatur>3.760416666666665</Temperatur><Temperatur2>3.760416666666665</Temperatur2><Wind Chill>2.6743055555555575</Wind Chill></row>
<row _id="140"><Timestamp>2023-12-17 22:55:54</Timestamp><Taupunkt>0.36503496503496513</Taupunkt><Temperatur>0.681118881118881</Temperatur><Temperatur2>0.681118881118881</Temperatur2><Wind Chill>-0.8118881118881117</Wind Chill></row>
<row _id="141"><Timestamp>2023-12-18 22:55:54</Timestamp><Taupunkt>1.0690140845070417</Taupunkt><Temperatur>3.033098591549297</Temperatur><Temperatur2>3.033098591549297</Temperatur2><Wind Chill>1.845774647887325</Wind Chill></row>
<row _id="142"><Timestamp>2023-12-19 22:55:54</Timestamp><Taupunkt>2.8062937062937072</Taupunkt><Temperatur>5.41888111888112</Temperatur><Temperatur2>5.41888111888112</Temperatur2><Wind Chill>4.261538461538463</Wind Chill></row>
<row _id="143"><Timestamp>2023-12-20 22:55:54</Timestamp><Taupunkt>3.8140845070422547</Taupunkt><Temperatur>6.4901408450704245</Temperatur><Temperatur2>6.4901408450704245</Temperatur2><Wind Chill>5.032394366197181</Wind Chill></row>
<row _id="144"><Timestamp>2023-12-21 22:55:54</Timestamp><Taupunkt>6.225</Taupunkt><Temperatur>9.342857142857143</Temperatur><Temperatur2>9.342857142857143</Temperatur2><Wind Chill>7.741428571428573</Wind Chill></row>
<row _id="145"><Timestamp>2023-12-22 22:55:54</Timestamp><Taupunkt>6.819444444444442</Taupunkt><Temperatur>9.055555555555559</Temperatur><Temperatur2>9.055555555555559</Temperatur2><Wind Chill>7.16736111111111</Wind Chill></row>
<row _id="146"><Timestamp>2023-12-23 22:55:54</Timestamp><Taupunkt>5.68698630136986</Taupunkt><Temperatur>9.11986301369863</Temperatur><Temperatur2>9.11986301369863</Temperatur2><Wind Chill>7.6958904109589055</Wind Chill></row>
<row _id="147"><Timestamp>2023-12-24 22:55:54</Timestamp><Taupunkt>5.8622377622377595</Taupunkt><Temperatur>10.189510489510484</Temperatur><Temperatur2>10.189510489510484</Temperatur2><Wind Chill>9.213286713286712</Wind Chill></row>
<row _id="148"><Timestamp>2023-12-25 22:55:54</Timestamp><Taupunkt>5.161267605633799</Taupunkt><Temperatur>9.53661971830986</Temperatur><Temperatur2>9.53661971830986</Temperatur2><Wind Chill>8.637323943661976</Wind Chill></row>
<row _id="149"><Timestamp>2023-12-26 22:55:54</Timestamp><Taupunkt>5.741666666666666</Taupunkt><Temperatur>8.672222222222219</Temperatur><Temperatur2>8.672222222222219</Temperatur2><Wind Chill>8.203472222222224</Wind Chill></row>
<row _id="150"><Timestamp>2023-12-27 22:55:54</Timestamp><Taupunkt>2.8117241379310345</Taupunkt><Temperatur>7.633793103448276</Temperatur><Temperatur2>7.633793103448276</Temperatur2><Wind Chill>7.048275862068967</Wind Chill></row>
<row _id="151"><Timestamp>2023-12-28 22:55:54</Timestamp><Taupunkt>6.7648275862068985</Taupunkt><Temperatur>9.678620689655167</Temperatur><Temperatur2>9.678620689655167</Temperatur2><Wind Chill>9.212413793103446</Wind Chill></row>
<row _id="152"><Timestamp>2023-12-29 22:55:54</Timestamp><Taupunkt>6.069930069930075</Taupunkt><Temperatur>10.08671328671328</Temperatur><Temperatur2>10.08671328671328</Temperatur2><Wind Chill>9.558741258741263</Wind Chill></row>
<row _id="153"><Timestamp>2023-12-30 22:55:54</Timestamp><Taupunkt>4.965034965034968</Taupunkt><Temperatur>7.78811188811189</Temperatur><Temperatur2>7.78811188811189</Temperatur2><Wind Chill>7.239160839160838</Wind Chill></row>
<row _id="154"><Timestamp>2023-12-31 22:55:54</Timestamp><Taupunkt>3.8874125874125864</Taupunkt><Temperatur>7.675524475524473</Temperatur><Temperatur2>7.675524475524473</Temperatur2><Wind Chill>6.545454545454544</Wind Chill></row>
<row _id="155"><Timestamp>2024-01-01 22:55:54</Timestamp><Taupunkt>3.9846153846153842</Taupunkt><Temperatur>8.341958041958037</Temperatur><Temperatur2>8.341958041958037</Temperatur2><Wind Chill>7.425174825174823</Wind Chill></row>
<row _id="156"><Timestamp>2024-01-02 22:55:54</Timestamp><Taupunkt>7.438405797101443</Taupunkt><Temperatur>10.047826086956524</Temperatur><Temperatur2>10.047826086956524</Temperatur2><Wind Chill>9.141304347826088</Wind Chill></row>
<row _id="157"><Timestamp>2024-01-03 22:55:54</Timestamp><Taupunkt>6.046206896551723</Taupunkt><Temperatur>9.811034482758627</Temperatur><Temperatur2>9.811034482758627</Temperatur2><Wind Chill>8.66344827586207</Wind Chill></row>
<row _id="158"><Timestamp>2024-01-04 22:55:54</Timestamp><Taupunkt>4.330069930069932</Taupunkt><Temperatur>7.719580419580417</Temperatur><Temperatur2>7.719580419580417</Temperatur2><Wind Chill>7.011188811188812</Wind Chill></row>
<row _id="159"><Timestamp>2024-01-05 22:55:54</Timestamp><Taupunkt>3.861805555555555</Taupunkt><Temperatur>7.106249999999999</Temperatur><Temperatur2>7.106249999999999</Temperatur2><Wind Chill>6.463194444444444</Wind Chill></row>
<row _id="160"><Timestamp>2024-01-06 22:55:54</Timestamp><Taupunkt>3.693055555555557</Taupunkt><Temperatur>4.924305555555553</Temperatur><Temperatur2>4.924305555555553</Temperatur2><Wind Chill>3.967361111111111</Wind Chill></row>
<row _id="161"><Timestamp>2024-01-07 22:55:54</Timestamp><Taupunkt>-1.8755319148936174</Taupunkt><Temperatur>1.522340425531913</Temperatur><Temperatur2>1.522340425531913</Temperatur2><Wind Chill>-0.9680851063829784</Wind Chill></row>
<row _id="162"><Timestamp>2024-01-08 22:55:54</Timestamp><Taupunkt>-8.667586206896551</Taupunkt><Temperatur>-3.440689655172415</Temperatur><Temperatur2>-3.440689655172415</Temperatur2><Wind Chill>-7.740689655172415</Wind Chill></row>
<row _id="163"><Timestamp>2024-01-09 22:55:54</Timestamp><Taupunkt>-9.682517482517477</Taupunkt><Temperatur>-2.7181818181818183</Temperatur><Temperatur2>-2.7181818181818183</Temperatur2><Wind Chill>-5.283216783216784</Wind Chill></row>
<row _id="164"><Timestamp>2024-01-10 22:55:54</Timestamp><Taupunkt>-7.220833333333333</Taupunkt><Temperatur>-2.1923611111111097</Temperatur><Temperatur2>-2.1923611111111097</Temperatur2><Wind Chill>-4.538194444444446</Wind Chill></row>
<row _id="165"><Timestamp>2024-01-11 22:55:54</Timestamp><Taupunkt>-6.034722222222226</Taupunkt><Temperatur>-1.976388888888889</Temperatur><Temperatur2>-1.976388888888889</Temperatur2><Wind Chill>-4.113194444444443</Wind Chill></row>
<row _id="166"><Timestamp>2024-01-12 22:55:54</Timestamp><Taupunkt>-3.9028169014084493</Taupunkt><Temperatur>-1.302112676056337</Temperatur><Temperatur2>-1.302112676056337</Temperatur2><Wind Chill>-3.221126760563377</Wind Chill></row>
<row _id="167"><Timestamp>2024-01-13 22:55:54</Timestamp><Taupunkt>-4.842361111111109</Taupunkt><Temperatur>-2.7534722222222205</Temperatur><Temperatur2>-2.7534722222222205</Temperatur2><Wind Chill>-4.734027777777776</Wind Chill></row>
<row _id="168"><Timestamp>2024-01-14 22:55:54</Timestamp><Taupunkt>-4.970714285714286</Taupunkt><Temperatur>-2.2214285714285715</Temperatur><Temperatur2>-2.2214285714285715</Temperatur2><Wind Chill>-4.402142857142858</Wind Chill></row>
<row _id="169"><Timestamp>2024-01-15 22:55:54</Timestamp><Taupunkt>-3.483916083916085</Taupunkt><Temperatur>-0.2153846153846152</Temperatur><Temperatur2>-0.2153846153846152</Temperatur2><Wind Chill>-2.022377622377623</Wind Chill></row>
<row _id="170"><Timestamp>2024-01-16 22:55:54</Timestamp><Taupunkt>-4.994964028776977</Taupunkt><Temperatur>-1.2345323741007195</Temperatur><Temperatur2>-1.2345323741007195</Temperatur2><Wind Chill>-2.987050359712231</Wind Chill></row>
<row _id="171"><Timestamp>2024-01-17 22:55:54</Timestamp><Taupunkt>3.377464788732394</Taupunkt><Temperatur>4.8774647887323965</Temperatur><Temperatur2>4.8774647887323965</Temperatur2><Wind Chill>3.4021126760563374</Wind Chill></row>
<row _id="172"><Timestamp>2024-01-18 22:55:54</Timestamp><Taupunkt>-2.1851851851851865</Taupunkt><Temperatur>-0.9614814814814816</Temperatur><Temperatur2>-0.9614814814814816</Temperatur2><Wind Chill>-2.693333333333334</Wind Chill></row>
<row _id="173"><Timestamp>2024-01-19 22:55:54</Timestamp><Taupunkt>-5.347586206896552</Taupunkt><Temperatur>-3.511034482758621</Temperatur><Temperatur2>-3.511034482758621</Temperatur2><Wind Chill>-5.57103448275862</Wind Chill></row>
<row _id="174"><Timestamp>2024-01-20 22:55:54</Timestamp><Taupunkt>-4.745774647887326</Taupunkt><Temperatur>-3.4436619718309855</Temperatur><Temperatur2>-3.4436619718309855</Temperatur2><Wind Chill>-5.492253521126761</Wind Chill></row>
<row _id="175"><Timestamp>2024-01-21 22:55:54</Timestamp><Taupunkt>-0.969444444444445</Taupunkt><Temperatur>5.750694444444445</Temperatur><Temperatur2>5.750694444444445</Temperatur2><Wind Chill>4.690972222222223</Wind Chill></row>
<row _id="176"><Timestamp>2024-01-22 22:55:54</Timestamp><Taupunkt>5.440972222222225</Taupunkt><Temperatur>8.425694444444444</Temperatur><Temperatur2>8.425694444444444</Temperatur2><Wind Chill>7.2666666666666675</Wind Chill></row>
<row _id="177"><Timestamp>2024-01-23 22:55:54</Timestamp><Taupunkt>5.428671328671328</Taupunkt><Temperatur>10.410489510489512</Temperatur><Temperatur2>10.410489510489512</Temperatur2><Wind Chill>9.592307692307694</Wind Chill></row>
<row _id="178"><Timestamp>2024-01-24 22:55:54</Timestamp><Taupunkt>6.924460431654679</Taupunkt><Temperatur>11.131654676259002</Temperatur><Temperatur2>11.131654676259002</Temperatur2><Wind Chill>10.701438848920864</Wind Chill></row>
<row _id="179"><Timestamp>2024-01-25 22:55:54</Timestamp><Taupunkt>7.814893617021282</Taupunkt><Temperatur>9.925531914893611</Temperatur><Temperatur2>9.925531914893611</Temperatur2><Wind Chill>9.589361702127656</Wind Chill></row>
<row _id="180"><Timestamp>2024-01-26 22:55:54</Timestamp><Taupunkt>3.8609929078014176</Taupunkt><Temperatur>5.5645390070922</Temperatur><Temperatur2>5.5645390070922</Temperatur2><Wind Chill>4.604964539007094</Wind Chill></row>
<row _id="181"><Timestamp>2024-01-27 22:55:54</Timestamp><Taupunkt>-0.051748251748251664</Taupunkt><Temperatur>2.8923076923076922</Temperatur><Temperatur2>2.8923076923076922</Temperatur2><Wind Chill>1.690909090909089</Wind Chill></row>
<row _id="182"><Timestamp>2024-01-28 22:55:54</Timestamp><Taupunkt>-0.3541666666666668</Taupunkt><Temperatur>2.2854166666666673</Temperatur><Temperatur2>2.2854166666666673</Temperatur2><Wind Chill>1.009027777777778</Wind Chill></row>
<row _id="183"><Timestamp>2024-01-29 22:55:54</Timestamp><Taupunkt>1.356643356643357</Taupunkt><Temperatur>4.265034965034967</Temperatur><Temperatur2>4.265034965034967</Temperatur2><Wind Chill>3.250349650349651</Wind Chill></row>
<row _id="184"><Timestamp>2024-01-30 22:55:54</Timestamp><Taupunkt>5.012413793103441</Taupunkt><Temperatur>8.632413793103444</Temperatur><Temperatur2>8.632413793103444</Temperatur2><Wind Chill>8.20068965517241</Wind Chill></row>
<row _id="185"><Timestamp>2024-01-31 22:55:54</Timestamp><Taupunkt>6.114084507042252</Taupunkt><Temperatur>9.381690140845075</Temperatur><Temperatur2>9.381690140845075</Temperatur2><Wind Chill>8.900704225352115</Wind Chill></row>
<row _id="186"><Timestamp>2024-02-01 22:55:54</Timestamp><Taupunkt>6.631250000000003</Taupunkt><Temperatur>7.1791666666666645</Temperatur><Temperatur2>7.1791666666666645</Temperatur2><Wind Chill>6.534722222222219</Wind Chill></row>
<row _id="187"><Timestamp>2024-02-02 22:55:54</Timestamp><Taupunkt>5.414084507042253</Taupunkt><Temperatur>8.920422535211275</Temperatur><Temperatur2>8.920422535211275</Temperatur2><Wind Chill>8.175352112676057</Wind Chill></row>
<row _id="188"><Timestamp>2024-02-03 22:55:54</Timestamp><Taupunkt>4.929861111111114</Taupunkt><Temperatur>8.517361111111105</Temperatur><Temperatur2>8.517361111111105</Temperatur2><Wind Chill>7.612499999999999</Wind Chill></row>
<row _id="189"><Timestamp>2024-02-04 22:55:54</Timestamp><Taupunkt>4.9607142857142845</Taupunkt><Temperatur>8.636428571428572</Temperatur><Temperatur2>8.636428571428572</Temperatur2><Wind Chill>7.5935714285714315</Wind Chill></row>
<row _id="190"><Timestamp>2024-02-05 22:55:54</Timestamp><Taupunkt>3.5965277777777747</Taupunkt><Temperatur>7.41736111111111</Temperatur><Temperatur2>7.41736111111111</Temperatur2><Wind Chill>6.080555555555556</Wind Chill></row>
<row _id="191"><Timestamp>2024-02-06 22:55:54</Timestamp><Taupunkt>4.0888888888888895</Taupunkt><Temperatur>8.910416666666668</Temperatur><Temperatur2>8.910416666666668</Temperatur2><Wind Chill>7.576388888888889</Wind Chill></row>
<row _id="192"><Timestamp>2024-02-07 22:55:54</Timestamp><Taupunkt>7.859027777777779</Taupunkt><Temperatur>9.437499999999998</Temperatur><Temperatur2>9.437499999999998</Temperatur2><Wind Chill>8.679166666666664</Wind Chill></row>
<row _id="193"><Timestamp>2024-02-08 22:55:54</Timestamp><Taupunkt>8.389510489510489</Taupunkt><Temperatur>12.383216783216781</Temperatur><Temperatur2>12.383216783216781</Temperatur2><Wind Chill>12.250349650349648</Wind Chill></row>
<row _id="194"><Timestamp>2024-02-09 22:55:54</Timestamp><Taupunkt>8.692413793103446</Taupunkt><Temperatur>10.903448275862065</Temperatur><Temperatur2>10.903448275862065</Temperatur2><Wind Chill>10.718620689655172</Wind Chill></row>
<row _id="195"><Timestamp>2024-02-10 22:55:54</Timestamp><Taupunkt>7.835915492957748</Taupunkt><Temperatur>9.35845070422535</Temperatur><Temperatur2>9.35845070422535</Temperatur2><Wind Chill>8.883098591549293</Wind Chill></row>
<row _id="196"><Timestamp>2024-02-11 22:55:54</Timestamp><Taupunkt>5.9443661971831006</Taupunkt><Temperatur>9.050704225352115</Temperatur><Temperatur2>9.050704225352115</Temperatur2><Wind Chill>8.592957746478874</Wind Chill></row>
<row _id="197"><Timestamp>2024-02-12 22:55:54</Timestamp><Taupunkt>3.7902777777777774</Taupunkt><Temperatur>7.841666666666669</Temperatur><Temperatur2>7.841666666666669</Temperatur2><Wind Chill>7.223611111111113</Wind Chill></row>
<row _id="198"><Timestamp>2024-02-13 22:55:54</Timestamp><Taupunkt>3.2342657342657333</Taupunkt><Temperatur>8.645454545454541</Temperatur><Temperatur2>8.645454545454541</Temperatur2><Wind Chill>8.180419580419581</Wind Chill></row>
<row _id="199"><Timestamp>2024-02-14 22:55:54</Timestamp><Taupunkt>8.123076923076928</Taupunkt><Temperatur>12.334265734265735</Temperatur><Temperatur2>12.334265734265735</Temperatur2><Wind Chill>12.253846153846151</Wind Chill></row>
<row _id="200"><Timestamp>2024-02-15 22:55:54</Timestamp><Taupunkt>8.367605633802814</Taupunkt><Temperatur>12.843661971830992</Temperatur><Temperatur2>12.843661971830992</Temperatur2><Wind Chill>12.78732394366198</Wind Chill></row>
<row _id="201"><Timestamp>2024-02-16 22:55:54</Timestamp><Taupunkt>10.30902777777777</Taupunkt><Temperatur>12.963888888888889</Temperatur><Temperatur2>12.963888888888889</Temperatur2><Wind Chill>12.925</Wind Chill></row>
<row _id="202"><Timestamp>2024-02-17 22:55:54</Timestamp><Taupunkt>6.495833333333331</Taupunkt><Temperatur>10.027777777777773</Temperatur><Temperatur2>10.027777777777773</Temperatur2><Wind Chill>9.693750000000005</Wind Chill></row>
<row _id="203"><Timestamp>2024-02-18 22:55:54</Timestamp><Taupunkt>7.403496503496499</Taupunkt><Temperatur>9.645454545454548</Temperatur><Temperatur2>9.645454545454548</Temperatur2><Wind Chill>9.1993006993007</Wind Chill></row>
<row _id="204"><Timestamp>2024-02-19 22:55:54</Timestamp><Taupunkt>6.782068965517244</Taupunkt><Temperatur>9.48965517241379</Temperatur><Temperatur2>9.48965517241379</Temperatur2><Wind Chill>9.13379310344828</Wind Chill></row>
<row _id="205"><Timestamp>2024-02-20 22:55:54</Timestamp><Taupunkt>4.289436619718311</Taupunkt><Temperatur>8.767605633802816</Temperatur><Temperatur2>8.767605633802816</Temperatur2><Wind Chill>8.232394366197184</Wind Chill></row>
<row _id="206"><Timestamp>2024-02-21 22:55:54</Timestamp><Taupunkt>5.733093525179858</Taupunkt><Temperatur>10.591366906474812</Temperatur><Temperatur2>10.591366906474812</Temperatur2><Wind Chill>10.191366906474824</Wind Chill></row>
<row _id="207"><Timestamp>2024-02-22 22:55:54</Timestamp><Taupunkt>4.992198581560281</Taupunkt><Temperatur>9.399290780141847</Temperatur><Temperatur2>9.399290780141847</Temperatur2><Wind Chill>8.37659574468085</Wind Chill></row>
<row _id="208"><Timestamp>2024-02-23 22:55:54</Timestamp><Taupunkt>1.721379310344827</Taupunkt><Temperatur>7.378620689655173</Temperatur><Temperatur2>7.378620689655173</Temperatur2><Wind Chill>6.655172413793105</Wind Chill></row>
<row _id="209"><Timestamp>2024-02-24 22:55:54</Timestamp><Taupunkt>0.9069930069930073</Taupunkt><Temperatur>6.311888111888114</Temperatur><Temperatur2>6.311888111888114</Temperatur2><Wind Chill>5.476923076923075</Wind Chill></row>
<row _id="210"><Timestamp>2024-02-25 22:55:54</Timestamp><Taupunkt>2.1349650349650355</Taupunkt><Temperatur>10.050349650349656</Temperatur><Temperatur2>10.050349650349656</Temperatur2><Wind Chill>9.713986013986016</Wind Chill></row>
<row _id="211"><Timestamp>2024-02-26 22:55:54</Timestamp><Taupunkt>5.507692307692306</Taupunkt><Temperatur>10.206993006993004</Temperatur><Temperatur2>10.206993006993004</Temperatur2><Wind Chill>9.860139860139855</Wind Chill></row>
<row _id="212"><Timestamp>2024-02-27 22:55:54</Timestamp><Taupunkt>3.9576388888888903</Taupunkt><Temperatur>8.08680555555555</Temperatur><Temperatur2>8.08680555555555</Temperatur2><Wind Chill>7.5118055555555525</Wind Chill></row>
<row _id="213"><Timestamp>2024-02-28 22:55:54</Timestamp><Taupunkt>1.89645390070922</Taupunkt><Temperatur>5.537588652482271</Temperatur><Temperatur2>5.537588652482271</Temperatur2><Wind Chill>4.669503546099293</Wind Chill></row>
<row _id="214"><Timestamp>2024-02-29 22:55:54</Timestamp><Taupunkt>3.2908450704225345</Taupunkt><Temperatur>7.318309859154929</Temperatur><Temperatur2>7.318309859154929</Temperatur2><Wind Chill>6.702816901408454</Wind Chill></row>
<row _id="215"><Timestamp>2024-03-01 22:55:54</Timestamp><Taupunkt>3.039999999999999</Taupunkt><Temperatur>6.937241379310346</Temperatur><Temperatur2>6.937241379310346</Temperatur2><Wind Chill>6.250344827586204</Wind Chill></row>
<row _id="216"><Timestamp>2024-03-02 22:55:54</Timestamp><Taupunkt>5.030985915492956</Taupunkt><Temperatur>11.247887323943656</Temperatur><Temperatur2>11.247887323943656</Temperatur2><Wind Chill>11.02676056338028</Wind Chill></row>
<row _id="217"><Timestamp>2024-03-03 22:55:54</Timestamp><Taupunkt>6.240140845070416</Taupunkt><Temperatur>10.497887323943667</Temperatur><Temperatur2>10.497887323943667</Temperatur2><Wind Chill>10.121126760563381</Wind Chill></row>
<row _id="218"><Timestamp>2024-03-04 22:55:54</Timestamp><Taupunkt>6.531468531468529</Taupunkt><Temperatur>8.604895104895101</Temperatur><Temperatur2>8.604895104895101</Temperatur2><Wind Chill>8.169930069930066</Wind Chill></row>
<row _id="219"><Timestamp>2024-03-05 22:55:54</Timestamp><Taupunkt>4.991034482758621</Taupunkt><Temperatur>7.626206896551725</Temperatur><Temperatur2>7.626206896551725</Temperatur2><Wind Chill>7.039310344827589</Wind Chill></row>
<row _id="220"><Timestamp>2024-03-06 22:55:54</Timestamp><Taupunkt>4.726428571428568</Taupunkt><Temperatur>7.078571428571431</Temperatur><Temperatur2>7.078571428571431</Temperatur2><Wind Chill>6.277857142857141</Wind Chill></row>
<row _id="221"><Timestamp>2024-03-07 22:55:54</Timestamp><Taupunkt>1.0657342657342659</Taupunkt><Temperatur>6.277622377622375</Temperatur><Temperatur2>6.277622377622375</Temperatur2><Wind Chill>5.116083916083916</Wind Chill></row>
<row _id="222"><Timestamp>2024-03-08 22:55:54</Timestamp><Taupunkt>1.6503546099290785</Taupunkt><Temperatur>7.763829787234038</Temperatur><Temperatur2>7.763829787234038</Temperatur2><Wind Chill>6.98439716312057</Wind Chill></row>
<row _id="223"><Timestamp>2024-03-09 22:55:54</Timestamp><Taupunkt>3.5119718309859165</Taupunkt><Temperatur>11.794366197183097</Temperatur><Temperatur2>11.794366197183097</Temperatur2><Wind Chill>11.602816901408456</Wind Chill></row>
<row _id="224"><Timestamp>2024-03-10 22:55:54</Timestamp><Taupunkt>5.279856115107911</Taupunkt><Temperatur>9.112230215827337</Temperatur><Temperatur2>9.112230215827337</Temperatur2><Wind Chill>8.664028776978423</Wind Chill></row>
<row _id="225"><Timestamp>2024-03-11 22:55:54</Timestamp><Taupunkt>4.7901408450704235</Taupunkt><Temperatur>10.082394366197182</Temperatur><Temperatur2>10.082394366197182</Temperatur2><Wind Chill>9.700704225352114</Wind Chill></row>
<row _id="226"><Timestamp>2024-03-12 22:55:54</Timestamp><Taupunkt>7.016901408450703</Taupunkt><Temperatur>8.742253521126758</Temperatur><Temperatur2>8.742253521126758</Temperatur2><Wind Chill>8.261971830985914</Wind Chill></row>
<row _id="227"><Timestamp>2024-03-13 22:55:54</Timestamp><Taupunkt>9.366901408450707</Taupunkt><Temperatur>11.565492957746477</Temperatur><Temperatur2>11.565492957746477</Temperatur2><Wind Chill>11.428169014084512</Wind Chill></row>
<row _id="228"><Timestamp>2024-03-14 22:55:54</Timestamp><Taupunkt>8.6013986013986</Taupunkt><Temperatur>14.204895104895103</Temperatur><Temperatur2>14.204895104895103</Temperatur2><Wind Chill>14.18951048951048</Wind Chill></row>
<row _id="229"><Timestamp>2024-03-15 22:55:54</Timestamp><Taupunkt>8.697202797202797</Taupunkt><Temperatur>12.459440559440562</Temperatur><Temperatur2>12.459440559440562</Temperatur2><Wind Chill>12.237762237762238</Wind Chill></row>
<row _id="230"><Timestamp>2024-03-16 22:55:54</Timestamp><Taupunkt>6.435915492957752</Taupunkt><Temperatur>10.07605633802817</Temperatur><Temperatur2>10.07605633802817</Temperatur2><Wind Chill>9.614084507042254</Wind Chill></row>
<row _id="231"><Timestamp>2024-03-17 22:55:54</Timestamp><Taupunkt>8.315172413793105</Taupunkt><Temperatur>11.882068965517245</Temperatur><Temperatur2>11.882068965517245</Temperatur2><Wind Chill>11.792413793103448</Wind Chill></row>
<row _id="232"><Timestamp>2024-03-18 22:55:54</Timestamp><Taupunkt>8.922758620689653</Taupunkt><Temperatur>10.927586206896555</Temperatur><Temperatur2>10.927586206896555</Temperatur2><Wind Chill>10.711724137931032</Wind Chill></row>
<row _id="233"><Timestamp>2024-03-19 22:55:54</Timestamp><Taupunkt>8.083916083916083</Taupunkt><Temperatur>12.781818181818181</Temperatur><Temperatur2>12.781818181818181</Temperatur2><Wind Chill>12.639160839160837</Wind Chill></row>
<row _id="234"><Timestamp>2024-03-20 22:55:54</Timestamp><Taupunkt>8.169718309859155</Taupunkt><Temperatur>14.15070422535212</Temperatur><Temperatur2>14.15070422535212</Temperatur2><Wind Chill>14.073943661971837</Wind Chill></row>
<row _id="235"><Timestamp>2024-03-21 22:55:54</Timestamp><Taupunkt>7.017361111111113</Taupunkt><Temperatur>14.741666666666667</Temperatur><Temperatur2>14.741666666666667</Temperatur2><Wind Chill>14.699305555555554</Wind Chill></row>
<row _id="236"><Timestamp>2024-03-22 22:55:54</Timestamp><Taupunkt>6.745833333333329</Taupunkt><Temperatur>14.32152777777778</Temperatur><Temperatur2>14.32152777777778</Temperatur2><Wind Chill>13.975000000000003</Wind Chill></row>
<row _id="237"><Timestamp>2024-03-23 22:55:54</Timestamp><Taupunkt>2.694444444444447</Taupunkt><Temperatur>6.379166666666665</Temperatur><Temperatur2>6.379166666666665</Temperatur2><Wind Chill>5.177777777777774</Wind Chill></row>
<row _id="238"><Timestamp>2024-03-24 22:55:54</Timestamp><Taupunkt>2.852777777777776</Taupunkt><Temperatur>6.9388888888888935</Temperatur><Temperatur2>6.9388888888888935</Temperatur2><Wind Chill>5.866666666666664</Wind Chill></row>
<row _id="239"><Timestamp>2024-03-25 22:55:54</Timestamp><Taupunkt>-0.20000000000000012</Taupunkt><Temperatur>9.312587412587416</Temperatur><Temperatur2>9.312587412587416</Temperatur2><Wind Chill>8.844055944055944</Wind Chill></row>
<row _id="240"><Timestamp>2024-03-26 22:55:54</Timestamp><Taupunkt>4.694520547945207</Taupunkt><Temperatur>12.156164383561645</Temperatur><Temperatur2>12.156164383561645</Temperatur2><Wind Chill>11.991095890410964</Wind Chill></row>
<row _id="241"><Timestamp>2024-03-27 22:55:54</Timestamp><Taupunkt>3.6120567375886536</Taupunkt><Temperatur>7.116312056737588</Temperatur><Temperatur2>7.116312056737588</Temperatur2><Wind Chill>6.241134751773045</Wind Chill></row>
<row _id="242"><Timestamp>2024-03-28 22:55:54</Timestamp><Taupunkt>3.4347222222222227</Taupunkt><Temperatur>9.431250000000006</Temperatur><Temperatur2>9.431250000000006</Temperatur2><Wind Chill>8.892361111111114</Wind Chill></row>
<row _id="243"><Timestamp>2024-03-29 22:55:54</Timestamp><Taupunkt>9.910273972602738</Taupunkt><Temperatur>11.103424657534251</Temperatur><Temperatur2>11.103424657534251</Temperatur2><Wind Chill>10.940410958904115</Wind Chill></row>
<row _id="244"><Timestamp>2024-03-30 22:55:54</Timestamp><Taupunkt>8.520714285714282</Taupunkt><Temperatur>12.043571428571427</Temperatur><Temperatur2>12.043571428571427</Temperatur2><Wind Chill>11.889285714285716</Wind Chill></row>
<row _id="245"><Timestamp>2024-03-31 23:55:54</Timestamp><Taupunkt>9.270833333333329</Taupunkt><Temperatur>13.645138888888885</Temperatur><Temperatur2>13.645138888888885</Temperatur2><Wind Chill>13.517361111111109</Wind Chill></row>
<row _id="246"><Timestamp>2024-04-01 23:55:54</Timestamp><Taupunkt>6.6006944444444455</Taupunkt><Temperatur>9.935416666666674</Temperatur><Temperatur2>9.935416666666674</Temperatur2><Wind Chill>9.429166666666664</Wind Chill></row>
<row _id="247"><Timestamp>2024-04-02 23:55:54</Timestamp><Taupunkt>5.181944444444445</Taupunkt><Temperatur>11.478472222222225</Temperatur><Temperatur2>11.478472222222225</Temperatur2><Wind Chill>11.209722222222219</Wind Chill></row>
<row _id="248"><Timestamp>2024-04-03 23:55:54</Timestamp><Taupunkt>9.56083916083916</Taupunkt><Temperatur>12.938461538461532</Temperatur><Temperatur2>12.938461538461532</Temperatur2><Wind Chill>12.879720279720273</Wind Chill></row>
<row _id="249"><Timestamp>2024-04-04 23:55:54</Timestamp><Taupunkt>10.646527777777784</Taupunkt><Temperatur>14.31736111111111</Temperatur><Temperatur2>14.31736111111111</Temperatur2><Wind Chill>14.302083333333334</Wind Chill></row>
<row _id="250"><Timestamp>2024-04-05 23:55:54</Timestamp><Taupunkt>9.454482758620689</Taupunkt><Temperatur>17.744827586206902</Temperatur><Temperatur2>17.744827586206902</Temperatur2><Wind Chill>17.732413793103454</Wind Chill></row>
<row _id="251"><Timestamp>2024-04-06 23:55:54</Timestamp><Taupunkt>7.704895104895103</Taupunkt><Temperatur>21.432167832167828</Temperatur><Temperatur2>21.432167832167828</Temperatur2><Wind Chill>21.432167832167828</Wind Chill></row>
<row _id="252"><Timestamp>2024-04-07 23:55:54</Timestamp><Taupunkt>11.01666666666667</Taupunkt><Temperatur>19.9625</Temperatur><Temperatur2>19.9625</Temperatur2><Wind Chill>19.9625</Wind Chill></row>
<row _id="253"><Timestamp>2024-04-08 23:55:54</Timestamp><Taupunkt>9.351773049645388</Taupunkt><Temperatur>20.090780141843975</Temperatur><Temperatur2>20.090780141843975</Temperatur2><Wind Chill>19.924113475177307</Wind Chill></row>
<row _id="254"><Timestamp>2024-04-09 23:55:54</Timestamp><Taupunkt>4.580985915492957</Taupunkt><Temperatur>9.864788732394366</Temperatur><Temperatur2>9.864788732394366</Temperatur2><Wind Chill>9.499295774647889</Wind Chill></row>
<row _id="255"><Timestamp>2024-04-10 23:55:54</Timestamp><Taupunkt>2.81875</Taupunkt><Temperatur>11.193749999999993</Temperatur><Temperatur2>11.193749999999993</Temperatur2><Wind Chill>10.906944444444454</Wind Chill></row>
<row _id="256"><Timestamp>2024-04-11 23:55:54</Timestamp><Taupunkt>4.172727272727272</Taupunkt><Temperatur>13.793006993006998</Temperatur><Temperatur2>13.793006993006998</Temperatur2><Wind Chill>13.660139860139859</Wind Chill></row>
<row _id="257"><Timestamp>2024-04-12 23:55:54</Timestamp><Taupunkt>7.163120567375884</Taupunkt><Temperatur>17.014184397163106</Temperatur><Temperatur2>17.014184397163106</Temperatur2><Wind Chill>16.982269503546092</Wind Chill></row>
<row _id="258"><Timestamp>2024-04-13 23:55:54</Timestamp><Taupunkt>10.688028169014085</Taupunkt><Temperatur>19.361267605633806</Temperatur><Temperatur2>19.361267605633806</Temperatur2><Wind Chill>19.361267605633806</Wind Chill></row>
<row _id="259"><Timestamp>2024-04-14 23:55:54</Timestamp><Taupunkt>11.254225352112671</Taupunkt><Temperatur>19.095070422535205</Temperatur><Temperatur2>19.095070422535205</Temperatur2><Wind Chill>19.094366197183092</Wind Chill></row>
<row _id="260"><Timestamp>2024-04-15 23:55:54</Timestamp><Taupunkt>3.962068965517242</Taupunkt><Temperatur>10.728965517241372</Temperatur><Temperatur2>10.728965517241372</Temperatur2><Wind Chill>9.799310344827592</Wind Chill></row>
<row _id="261"><Timestamp>2024-04-16 23:55:54</Timestamp><Taupunkt>4.888888888888889</Taupunkt><Temperatur>8.262500000000005</Temperatur><Temperatur2>8.262500000000005</Temperatur2><Wind Chill>7.300694444444446</Wind Chill></row>
<row _id="262"><Timestamp>2024-04-17 23:55:54</Timestamp><Taupunkt>3.2622377622377616</Taupunkt><Temperatur>6.346153846153849</Temperatur><Temperatur2>6.346153846153849</Temperatur2><Wind Chill>5.586713286713291</Wind Chill></row>
<row _id="263"><Timestamp>2024-04-18 23:55:54</Timestamp><Taupunkt>4.331249999999999</Taupunkt><Temperatur>6.981944444444448</Temperatur><Temperatur2>6.981944444444448</Temperatur2><Wind Chill>6.152777777777782</Wind Chill></row>
<row _id="264"><Timestamp>2024-04-19 23:55:54</Timestamp><Taupunkt>4.457142857142857</Taupunkt><Temperatur>6.527857142857144</Temperatur><Temperatur2>6.527857142857144</Temperatur2><Wind Chill>5.535714285714285</Wind Chill></row>
<row _id="265"><Timestamp>2024-04-20 23:55:54</Timestamp><Taupunkt>3.1999999999999997</Taupunkt><Temperatur>6.415384615384616</Temperatur><Temperatur2>6.415384615384616</Temperatur2><Wind Chill>5.66083916083916</Wind Chill></row>
<row _id="266"><Timestamp>2024-04-21 23:55:54</Timestamp><Taupunkt>1.4753521126760556</Taupunkt><Temperatur>5.161267605633801</Temperatur><Temperatur2>5.161267605633801</Temperatur2><Wind Chill>4.03943661971831</Wind Chill></row>
<row _id="267"><Timestamp>2024-04-22 23:55:54</Timestamp><Taupunkt>-0.38943661971830995</Taupunkt><Temperatur>5.567605633802819</Temperatur><Temperatur2>5.567605633802819</Temperatur2><Wind Chill>4.450000000000001</Wind Chill></row>
<row _id="268"><Timestamp>2024-04-23 23:55:54</Timestamp><Taupunkt>-0.8655172413793101</Taupunkt><Temperatur>7.690344827586206</Temperatur><Temperatur2>7.690344827586206</Temperatur2><Wind Chill>7.06551724137931</Wind Chill></row>
<row _id="269"><Timestamp>2024-04-24 23:55:54</Timestamp><Taupunkt>2.8633802816901412</Taupunkt><Temperatur>5.998591549295773</Temperatur><Temperatur2>5.998591549295773</Temperatur2><Wind Chill>5.07112676056338</Wind Chill></row>
<row _id="270"><Timestamp>2024-04-25 23:55:54</Timestamp><Taupunkt>1.9078571428571434</Taupunkt><Temperatur>7.762142857142854</Temperatur><Temperatur2>7.762142857142854</Temperatur2><Wind Chill>7.161428571428571</Wind Chill></row>
<row _id="271"><Timestamp>2024-04-26 23:55:54</Timestamp><Taupunkt>7.175177304964539</Taupunkt><Temperatur>11.060283687943267</Temperatur><Temperatur2>11.060283687943267</Temperatur2><Wind Chill>10.802836879432629</Wind Chill></row>
<row _id="272"><Timestamp>2024-04-27 23:55:54</Timestamp><Taupunkt>6.932394366197181</Taupunkt><Temperatur>17.060563380281685</Temperatur><Temperatur2>17.060563380281685</Temperatur2><Wind Chill>17.05704225352112</Wind Chill></row>
<row _id="273"><Timestamp>2024-04-28 23:55:54</Timestamp><Taupunkt>7.955862068965513</Taupunkt><Temperatur>14.193793103448266</Temperatur><Temperatur2>14.193793103448266</Temperatur2><Wind Chill>14.174482758620679</Wind Chill></row>
<row _id="274"><Timestamp>2024-04-29 23:55:54</Timestamp><Taupunkt>9.425874125874127</Taupunkt><Temperatur>17.11328671328671</Temperatur><Temperatur2>17.11328671328671</Temperatur2><Wind Chill>17.1041958041958</Wind Chill></row>
<row _id="275"><Timestamp>2024-04-30 23:55:54</Timestamp><Taupunkt>10.96736111111111</Taupunkt><Temperatur>19.393749999999997</Temperatur><Temperatur2>19.393749999999997</Temperatur2><Wind Chill>19.393749999999997</Wind Chill></row>
<row _id="276"><Timestamp>2024-05-01 23:55:54</Timestamp><Taupunkt>11.095138888888886</Taupunkt><Temperatur>20.661111111111108</Temperatur><Temperatur2>20.661111111111108</Temperatur2><Wind Chill>20.661111111111108</Wind Chill></row>
<row _id="277"><Timestamp>2024-05-02 23:55:54</Timestamp><Taupunkt>10.443055555555553</Taupunkt><Temperatur>13.586805555555557</Temperatur><Temperatur2>13.586805555555557</Temperatur2><Wind Chill>13.336111111111112</Wind Chill></row>
<row _id="278"><Timestamp>2024-05-03 23:55:54</Timestamp><Taupunkt>7.546206896551724</Taupunkt><Temperatur>13.331724137931033</Temperatur><Temperatur2>13.331724137931033</Temperatur2><Wind Chill>13.265517241379305</Wind Chill></row>
<row _id="279"><Timestamp>2024-05-04 23:55:54</Timestamp><Taupunkt>10.63333333333333</Taupunkt><Temperatur>16.73194444444444</Temperatur><Temperatur2>16.73194444444444</Temperatur2><Wind Chill>16.73055555555555</Wind Chill></row>
<row _id="280"><Timestamp>2024-05-05 23:55:54</Timestamp><Taupunkt>13.458041958041962</Taupunkt><Temperatur>16.572727272727278</Temperatur><Temperatur2>16.572727272727278</Temperatur2><Wind Chill>16.572727272727278</Wind Chill></row>
<row _id="281"><Timestamp>2024-05-06 23:55:54</Timestamp><Taupunkt>10.970833333333339</Taupunkt><Temperatur>13.930555555555552</Temperatur><Temperatur2>13.930555555555552</Temperatur2><Wind Chill>13.890972222222219</Wind Chill></row>
<row _id="282"><Timestamp>2024-05-07 23:55:54</Timestamp><Taupunkt>10.236111111111118</Taupunkt><Temperatur>14.482638888888895</Temperatur><Temperatur2>14.482638888888895</Temperatur2><Wind Chill>14.479861111111116</Wind Chill></row>
<row _id="283"><Timestamp>2024-05-08 23:55:54</Timestamp><Taupunkt>8.847916666666663</Taupunkt><Temperatur>14.090972222222229</Temperatur><Temperatur2>14.090972222222229</Temperatur2><Wind Chill>14.039583333333333</Wind Chill></row>
<row _id="284"><Timestamp>2024-05-09 23:55:54</Timestamp><Taupunkt>7.165277777777776</Taupunkt><Temperatur>16.391666666666673</Temperatur><Temperatur2>16.391666666666673</Temperatur2><Wind Chill>16.34930555555556</Wind Chill></row>
<row _id="285"><Timestamp>2024-05-10 23:55:54</Timestamp><Taupunkt>7.71388888888889</Taupunkt><Temperatur>18.21805555555556</Temperatur><Temperatur2>18.21805555555556</Temperatur2><Wind Chill>18.21180555555556</Wind Chill></row>
<row _id="286"><Timestamp>2024-05-11 23:55:54</Timestamp><Taupunkt>8.454545454545453</Taupunkt><Temperatur>20.087412587412587</Temperatur><Temperatur2>20.087412587412587</Temperatur2><Wind Chill>20.087412587412587</Wind Chill></row>
<row _id="287"><Timestamp>2024-05-12 23:55:54</Timestamp><Taupunkt>11.200694444444444</Taupunkt><Temperatur>22.082638888888894</Temperatur><Temperatur2>22.082638888888894</Temperatur2><Wind Chill>22.082638888888894</Wind Chill></row>
<row _id="288"><Timestamp>2024-05-13 23:55:54</Timestamp><Taupunkt>12.802097902097904</Taupunkt><Temperatur>19.87622377622379</Temperatur><Temperatur2>19.87622377622379</Temperatur2><Wind Chill>19.87622377622379</Wind Chill></row>
<row _id="289"><Timestamp>2024-05-14 23:55:54</Timestamp><Taupunkt>11.233823529411765</Taupunkt><Temperatur>19.902205882352945</Temperatur><Temperatur2>19.902205882352945</Temperatur2><Wind Chill>19.902205882352945</Wind Chill></row>
<row _id="290"><Timestamp>2024-05-15 23:55:54</Timestamp><Taupunkt>12.779577464788728</Taupunkt><Temperatur>16.059154929577463</Temperatur><Temperatur2>16.059154929577463</Temperatur2><Wind Chill>16.057746478873238</Wind Chill></row>
<row _id="291"><Timestamp>2024-05-16 23:55:54</Timestamp><Taupunkt>12.081294964028782</Taupunkt><Temperatur>15.568345323740994</Temperatur><Temperatur2>15.568345323740994</Temperatur2><Wind Chill>15.40791366906474</Wind Chill></row>
<row _id="292"><Timestamp>2024-05-17 23:55:54</Timestamp><Taupunkt>11.185416666666672</Taupunkt><Temperatur>12.626388888888892</Temperatur><Temperatur2>12.626388888888892</Temperatur2><Wind Chill>12.35902777777778</Wind Chill></row>
<row _id="293"><Timestamp>2024-05-18 23:55:54</Timestamp><Taupunkt>11.591666666666663</Taupunkt><Temperatur>16.061805555555548</Temperatur><Temperatur2>16.061805555555548</Temperatur2><Wind Chill>16.057638888888885</Wind Chill></row>
<row _id="294"><Timestamp>2024-05-19 23:55:54</Timestamp><Taupunkt>11.607586206896553</Taupunkt><Temperatur>16.185517241379312</Temperatur><Temperatur2>16.185517241379312</Temperatur2><Wind Chill>16.175172413793103</Wind Chill></row>
<row _id="295"><Timestamp>2024-05-20 23:55:54</Timestamp><Taupunkt>12.465734265734257</Taupunkt><Temperatur>18.711188811188812</Temperatur><Temperatur2>18.711188811188812</Temperatur2><Wind Chill>18.711188811188812</Wind Chill></row>
<row _id="296"><Timestamp>2024-05-21 23:55:54</Timestamp><Taupunkt>13.215827338129495</Taupunkt><Temperatur>15.625899280575544</Temperatur><Temperatur2>15.625899280575544</Temperatur2><Wind Chill>15.625179856115112</Wind Chill></row>
<row _id="297"><Timestamp>2024-05-22 23:55:54</Timestamp><Taupunkt>12.296503496503497</Taupunkt><Temperatur>16.1895104895105</Temperatur><Temperatur2>16.1895104895105</Temperatur2><Wind Chill>16.186013986013997</Wind Chill></row>
<row _id="298"><Timestamp>2024-05-23 23:55:54</Timestamp><Taupunkt>12.3965034965035</Taupunkt><Temperatur>14.665734265734278</Temperatur><Temperatur2>14.665734265734278</Temperatur2><Wind Chill>14.665734265734278</Wind Chill></row>
<row _id="299"><Timestamp>2024-05-24 23:55:54</Timestamp><Taupunkt>11.764827586206902</Taupunkt><Temperatur>15.649655172413798</Temperatur><Temperatur2>15.649655172413798</Temperatur2><Wind Chill>15.64</Wind Chill></row>
<row _id="300"><Timestamp>2024-05-25 23:55:54</Timestamp><Taupunkt>10.977083333333333</Taupunkt><Temperatur>18.62361111111111</Temperatur><Temperatur2>18.62361111111111</Temperatur2><Wind Chill>18.62361111111111</Wind Chill></row>
<row _id="301"><Timestamp>2024-05-26 23:55:54</Timestamp><Taupunkt>13.252054794520546</Taupunkt><Temperatur>19.513698630136997</Temperatur><Temperatur2>19.513698630136997</Temperatur2><Wind Chill>19.513698630136997</Wind Chill></row>
<row _id="302"><Timestamp>2024-05-27 23:55:54</Timestamp><Taupunkt>11.698591549295775</Taupunkt><Temperatur>16.8387323943662</Temperatur><Temperatur2>16.8387323943662</Temperatur2><Wind Chill>16.8387323943662</Wind Chill></row>
<row _id="303"><Timestamp>2024-05-28 23:55:54</Timestamp><Taupunkt>9.500689655172412</Taupunkt><Temperatur>18.29172413793103</Temperatur><Temperatur2>18.29172413793103</Temperatur2><Wind Chill>18.29172413793103</Wind Chill></row>
<row _id="304"><Timestamp>2024-05-29 23:55:54</Timestamp><Taupunkt>13.000729927007301</Taupunkt><Temperatur>16.097080291970805</Temperatur><Temperatur2>16.097080291970805</Temperatur2><Wind Chill>16.086131386861314</Wind Chill></row>
<row _id="305"><Timestamp>2024-05-30 23:55:54</Timestamp><Taupunkt>10.984999999999996</Taupunkt><Temperatur>16.54857142857143</Temperatur><Temperatur2>16.54857142857143</Temperatur2><Wind Chill>16.54857142857143</Wind Chill></row>
<row _id="306"><Timestamp>2024-05-31 23:55:54</Timestamp><Taupunkt>12.353900709219863</Taupunkt><Temperatur>14.785106382978721</Temperatur><Temperatur2>14.785106382978721</Temperatur2><Wind Chill>14.785106382978721</Wind Chill></row>
<row _id="307"><Timestamp>2024-06-01 23:55:54</Timestamp><Taupunkt>14.523943661971828</Taupunkt><Temperatur>15.974647887323941</Temperatur><Temperatur2>15.974647887323941</Temperatur2><Wind Chill>15.974647887323941</Wind Chill></row>
<row _id="308"><Timestamp>2024-06-02 23:55:54</Timestamp><Taupunkt>12.799300699300694</Taupunkt><Temperatur>16.790209790209783</Temperatur><Temperatur2>16.790209790209783</Temperatur2><Wind Chill>16.790209790209783</Wind Chill></row>
<row _id="309"><Timestamp>2024-06-03 23:55:54</Timestamp><Taupunkt>10.849999999999998</Taupunkt><Temperatur>16.86478873239436</Temperatur><Temperatur2>16.86478873239436</Temperatur2><Wind Chill>16.86478873239436</Wind Chill></row>
<row _id="310"><Timestamp>2024-06-04 23:55:54</Timestamp><Taupunkt>12.687234042553186</Taupunkt><Temperatur>19.65815602836879</Temperatur><Temperatur2>19.65815602836879</Temperatur2><Wind Chill>19.65815602836879</Wind Chill></row>
<row _id="311"><Timestamp>2024-06-05 23:55:54</Timestamp><Taupunkt>13.994366197183103</Taupunkt><Temperatur>20.04647887323943</Temperatur><Temperatur2>20.04647887323943</Temperatur2><Wind Chill>20.04647887323943</Wind Chill></row>
<row _id="312"><Timestamp>2024-06-06 23:55:54</Timestamp><Taupunkt>11.046808510638296</Taupunkt><Temperatur>21.510638297872337</Temperatur><Temperatur2>21.510638297872337</Temperatur2><Wind Chill>21.510638297872337</Wind Chill></row>
<row _id="313"><Timestamp>2024-06-07 23:55:54</Timestamp><Taupunkt>10.897916666666667</Taupunkt><Temperatur>21.141666666666666</Temperatur><Temperatur2>21.141666666666666</Temperatur2><Wind Chill>21.141666666666666</Wind Chill></row>
<row _id="314"><Timestamp>2024-06-08 23:55:54</Timestamp><Taupunkt>13.075000000000005</Taupunkt><Temperatur>20.668055555555565</Temperatur><Temperatur2>20.668055555555565</Temperatur2><Wind Chill>20.667361111111116</Wind Chill></row>
<row _id="315"><Timestamp>2024-06-09 23:55:54</Timestamp><Taupunkt>9.177304964539008</Taupunkt><Temperatur>19.584397163120563</Temperatur><Temperatur2>19.584397163120563</Temperatur2><Wind Chill>19.584397163120563</Wind Chill></row>
<row _id="316"><Timestamp>2024-06-10 23:55:54</Timestamp><Taupunkt>6.9722222222222205</Taupunkt><Temperatur>16.59583333333333</Temperatur><Temperatur2>16.59583333333333</Temperatur2><Wind Chill>16.562500000000004</Wind Chill></row>
<row _id="317"><Timestamp>2024-06-11 23:55:54</Timestamp><Taupunkt>5.768749999999996</Taupunkt><Temperatur>15.377083333333331</Temperatur><Temperatur2>15.377083333333331</Temperatur2><Wind Chill>15.33402777777778</Wind Chill></row>
<row _id="318"><Timestamp>2024-06-12 23:55:54</Timestamp><Taupunkt>5.956737588652486</Taupunkt><Temperatur>16.665248226950357</Temperatur><Temperatur2>16.665248226950357</Temperatur2><Wind Chill>16.663829787234047</Wind Chill></row>
<row _id="319"><Timestamp>2024-06-13 23:55:54</Timestamp><Taupunkt>7.594405594405596</Taupunkt><Temperatur>17.583916083916094</Temperatur><Temperatur2>17.583916083916094</Temperatur2><Wind Chill>17.583916083916094</Wind Chill></row>
<row _id="320"><Timestamp>2024-06-14 23:55:54</Timestamp><Taupunkt>13.509285714285722</Taupunkt><Temperatur>17.156428571428574</Temperatur><Temperatur2>17.156428571428574</Temperatur2><Wind Chill>17.13</Wind Chill></row>
<row _id="321"><Timestamp>2024-06-15 23:55:54</Timestamp><Taupunkt>10.51319444444445</Taupunkt><Temperatur>17.58472222222222</Temperatur><Temperatur2>17.58472222222222</Temperatur2><Wind Chill>17.581944444444442</Wind Chill></row>
<row _id="322"><Timestamp>2024-06-16 23:55:54</Timestamp><Taupunkt>13.23888888888889</Taupunkt><Temperatur>19.213194444444447</Temperatur><Temperatur2>19.213194444444447</Temperatur2><Wind Chill>19.213194444444447</Wind Chill></row>
<row _id="323"><Timestamp>2024-06-17 23:55:54</Timestamp><Taupunkt>15.194244604316543</Taupunkt><Temperatur>19.720863309352524</Temperatur><Temperatur2>19.720863309352524</Temperatur2><Wind Chill>19.720863309352524</Wind Chill></row>
<row _id="324"><Timestamp>2024-06-18 23:55:54</Timestamp><Taupunkt>17.72</Taupunkt><Temperatur>24.13862068965517</Temperatur><Temperatur2>24.13862068965517</Temperatur2><Wind Chill>24.13862068965517</Wind Chill></row>
<row _id="325"><Timestamp>2024-06-19 23:55:54</Timestamp><Taupunkt>15.462676056338028</Taupunkt><Temperatur>20.08028169014084</Temperatur><Temperatur2>20.08028169014084</Temperatur2><Wind Chill>20.08028169014084</Wind Chill></row>
<row _id="326"><Timestamp>2024-06-20 23:55:54</Timestamp><Taupunkt>19.026388888888885</Taupunkt><Temperatur>22.0875</Temperatur><Temperatur2>22.0875</Temperatur2><Wind Chill>22.0875</Wind Chill></row>
<row _id="327"><Timestamp>2024-06-21 23:55:54</Timestamp><Taupunkt>15.963309352517987</Taupunkt><Temperatur>19.574820143884896</Temperatur><Temperatur2>19.574820143884896</Temperatur2><Wind Chill>19.574820143884896</Wind Chill></row>
<row _id="328"><Timestamp>2024-06-22 23:55:54</Timestamp><Taupunkt>13.886206896551725</Taupunkt><Temperatur>16.74068965517241</Temperatur><Temperatur2>16.74068965517241</Temperatur2><Wind Chill>16.74068965517241</Wind Chill></row>
<row _id="329"><Timestamp>2024-06-23 23:55:54</Timestamp><Taupunkt>14.684722222222225</Taupunkt><Temperatur>20.951388888888875</Temperatur><Temperatur2>20.951388888888875</Temperatur2><Wind Chill>20.951388888888875</Wind Chill></row>
<row _id="330"><Timestamp>2024-06-24 23:55:54</Timestamp><Taupunkt>13.973239436619714</Taupunkt><Temperatur>23.335211267605644</Temperatur><Temperatur2>23.335211267605644</Temperatur2><Wind Chill>23.335211267605644</Wind Chill></row>
<row _id="331"><Timestamp>2024-06-25 23:55:54</Timestamp><Taupunkt>14.79440559440559</Taupunkt><Temperatur>24.567132867132866</Temperatur><Temperatur2>24.567132867132866</Temperatur2><Wind Chill>24.567132867132866</Wind Chill></row>
<row _id="332"><Timestamp>2024-06-26 23:55:54</Timestamp><Taupunkt>18.55972222222222</Taupunkt><Temperatur>25.042361111111113</Temperatur><Temperatur2>25.042361111111113</Temperatur2><Wind Chill>25.042361111111113</Wind Chill></row>
<row _id="333"><Timestamp>2024-06-27 23:55:54</Timestamp><Taupunkt>18.545774647887335</Taupunkt><Temperatur>26.18943661971831</Temperatur><Temperatur2>26.18943661971831</Temperatur2><Wind Chill>26.18943661971831</Wind Chill></row>
<row _id="334"><Timestamp>2024-06-28 23:55:54</Timestamp><Taupunkt>16.14930555555556</Taupunkt><Temperatur>24.661805555555546</Temperatur><Temperatur2>24.661805555555546</Temperatur2><Wind Chill>24.661805555555546</Wind Chill></row>
<row _id="335"><Timestamp>2024-06-29 23:55:54</Timestamp><Taupunkt>19.573943661971832</Taupunkt><Temperatur>25.42957746478871</Temperatur><Temperatur2>25.42957746478871</Temperatur2><Wind Chill>25.42957746478871</Wind Chill></row>
<row _id="336"><Timestamp>2024-06-30 23:55:54</Timestamp><Taupunkt>15.610416666666671</Taupunkt><Temperatur>17.26805555555556</Temperatur><Temperatur2>17.26805555555556</Temperatur2><Wind Chill>17.26736111111111</Wind Chill></row>
<row _id="337"><Timestamp>2024-07-01 23:55:54</Timestamp><Taupunkt>13.476388888888883</Taupunkt><Temperatur>18.457638888888887</Temperatur><Temperatur2>18.457638888888887</Temperatur2><Wind Chill>18.457638888888887</Wind Chill></row>
<row _id="338"><Timestamp>2024-07-02 23:55:54</Timestamp><Taupunkt>13.775352112676055</Taupunkt><Temperatur>15.921126760563382</Temperatur><Temperatur2>15.921126760563382</Temperatur2><Wind Chill>15.919718309859158</Wind Chill></row>
<row _id="339"><Timestamp>2024-07-03 23:55:54</Timestamp><Taupunkt>13.030069930069937</Taupunkt><Temperatur>15.47762237762237</Temperatur><Temperatur2>15.47762237762237</Temperatur2><Wind Chill>15.47762237762237</Wind Chill></row>
<row _id="340"><Timestamp>2024-07-04 23:55:54</Timestamp><Taupunkt>13.028275862068972</Taupunkt><Temperatur>17.924827586206902</Temperatur><Temperatur2>17.924827586206902</Temperatur2><Wind Chill>17.924827586206902</Wind Chill></row>
<row _id="341"><Timestamp>2024-07-05 23:55:54</Timestamp><Taupunkt>13.834751773049641</Taupunkt><Temperatur>20.826241134751776</Temperatur><Temperatur2>20.826241134751776</Temperatur2><Wind Chill>20.826241134751776</Wind Chill></row>
<row _id="342"><Timestamp>2024-07-06 23:55:54</Timestamp><Taupunkt>14.790277777777776</Taupunkt><Temperatur>17.515277777777776</Temperatur><Temperatur2>17.515277777777776</Temperatur2><Wind Chill>17.515277777777776</Wind Chill></row>
<row _id="343"><Timestamp>2024-07-07 23:55:54</Timestamp><Taupunkt>10.311805555555559</Taupunkt><Temperatur>19.86111111111111</Temperatur><Temperatur2>19.86111111111111</Temperatur2><Wind Chill>19.86111111111111</Wind Chill></row>
<row _id="344"><Timestamp>2024-07-08 23:55:54</Timestamp><Taupunkt>13.860839160839156</Taupunkt><Temperatur>23.48881118881119</Temperatur><Temperatur2>23.48881118881119</Temperatur2><Wind Chill>23.48881118881119</Wind Chill></row>
<row _id="345"><Timestamp>2024-07-09 23:55:54</Timestamp><Taupunkt>18.209790209790214</Taupunkt><Temperatur>27.76363636363637</Temperatur><Temperatur2>27.76363636363637</Temperatur2><Wind Chill>27.76363636363637</Wind Chill></row>
<row _id="346"><Timestamp>2024-07-10 23:55:54</Timestamp><Taupunkt>19.21056338028169</Taupunkt><Temperatur>22.252112676056345</Temperatur><Temperatur2>22.252112676056345</Temperatur2><Wind Chill>22.252112676056345</Wind Chill></row>
<row _id="347"><Timestamp>2024-07-11 23:55:54</Timestamp><Taupunkt>18.281818181818185</Taupunkt><Temperatur>24.05034965034965</Temperatur><Temperatur2>24.05034965034965</Temperatur2><Wind Chill>24.05034965034965</Wind Chill></row>
<row _id="348"><Timestamp>2024-07-12 23:55:54</Timestamp><Taupunkt>15.60642857142857</Taupunkt><Temperatur>19.747142857142858</Temperatur><Temperatur2>19.747142857142858</Temperatur2><Wind Chill>19.747142857142858</Wind Chill></row>
<row _id="349"><Timestamp>2024-07-13 23:55:54</Timestamp><Taupunkt>12.041549295774646</Taupunkt><Temperatur>19.531690140845065</Temperatur><Temperatur2>19.531690140845065</Temperatur2><Wind Chill>19.531690140845065</Wind Chill></row>
<row _id="350"><Timestamp>2024-07-14 23:55:54</Timestamp><Taupunkt>13.170833333333336</Taupunkt><Temperatur>21.73194444444445</Temperatur><Temperatur2>21.73194444444445</Temperatur2><Wind Chill>21.73194444444445</Wind Chill></row>
<row _id="351"><Timestamp>2024-07-15 23:55:54</Timestamp><Taupunkt>17.553146853146853</Taupunkt><Temperatur>24.34615384615385</Temperatur><Temperatur2>24.34615384615385</Temperatur2><Wind Chill>24.34615384615385</Wind Chill></row>
<row _id="352"><Timestamp>2024-07-16 23:55:54</Timestamp><Taupunkt>13.674825174825175</Taupunkt><Temperatur>22.26223776223775</Temperatur><Temperatur2>22.26223776223775</Temperatur2><Wind Chill>22.26223776223775</Wind Chill></row>
<row _id="353"><Timestamp>2024-07-17 23:55:54</Timestamp><Taupunkt>14.1</Taupunkt><Temperatur>22.613669064748198</Temperatur><Temperatur2>22.613669064748198</Temperatur2><Wind Chill>22.613669064748198</Wind Chill></row>
<row _id="354"><Timestamp>2024-07-18 23:55:54</Timestamp><Taupunkt>14.874482758620697</Taupunkt><Temperatur>24.664137931034492</Temperatur><Temperatur2>24.664137931034492</Temperatur2><Wind Chill>24.664137931034492</Wind Chill></row>
<row _id="355"><Timestamp>2024-07-19 23:55:54</Timestamp><Taupunkt>17.722857142857144</Taupunkt><Temperatur>26.544285714285714</Temperatur><Temperatur2>26.544285714285714</Temperatur2><Wind Chill>26.544285714285714</Wind Chill></row>
<row _id="356"><Timestamp>2024-07-20 23:55:54</Timestamp><Taupunkt>17.214583333333326</Taupunkt><Temperatur>27.44236111111111</Temperatur><Temperatur2>27.44236111111111</Temperatur2><Wind Chill>27.44236111111111</Wind Chill></row>
<row _id="357"><Timestamp>2024-07-21 23:55:54</Timestamp><Taupunkt>18.326241134751783</Taupunkt><Temperatur>23.85390070921986</Temperatur><Temperatur2>23.85390070921986</Temperatur2><Wind Chill>23.85390070921986</Wind Chill></row>
<row _id="358"><Timestamp>2024-07-22 23:55:54</Timestamp><Taupunkt>14.082394366197178</Taupunkt><Temperatur>22.855633802816918</Temperatur><Temperatur2>22.855633802816918</Temperatur2><Wind Chill>22.855633802816918</Wind Chill></row>
<row _id="359"><Timestamp>2024-07-23 23:55:54</Timestamp><Taupunkt>16.075</Taupunkt><Temperatur>19.675694444444442</Temperatur><Temperatur2>19.675694444444442</Temperatur2><Wind Chill>19.675694444444442</Wind Chill></row>
<row _id="360"><Timestamp>2024-07-24 23:55:54</Timestamp><Taupunkt>14.450000000000001</Taupunkt><Temperatur>22.406382978723403</Temperatur><Temperatur2>22.406382978723403</Temperatur2><Wind Chill>22.406382978723403</Wind Chill></row>
<row _id="361"><Timestamp>2024-07-25 23:55:54</Timestamp><Taupunkt>15.14366197183099</Taupunkt><Temperatur>23.090845070422542</Temperatur><Temperatur2>23.090845070422542</Temperatur2><Wind Chill>23.090845070422542</Wind Chill></row>
<row _id="362"><Timestamp>2024-07-26 23:55:54</Timestamp><Taupunkt>18.252447552447553</Taupunkt><Temperatur>23.54755244755245</Temperatur><Temperatur2>23.54755244755245</Temperatur2><Wind Chill>23.54755244755245</Wind Chill></row>
<row _id="363"><Timestamp>2024-07-27 23:55:54</Timestamp><Taupunkt>18.118571428571446</Taupunkt><Temperatur>21.39785714285714</Temperatur><Temperatur2>21.39785714285714</Temperatur2><Wind Chill>21.39785714285714</Wind Chill></row>
<row _id="364"><Timestamp>2024-07-28 23:55:54</Timestamp><Taupunkt>13.206293706293696</Taupunkt><Temperatur>20.567132867132866</Temperatur><Temperatur2>20.567132867132866</Temperatur2><Wind Chill>20.567132867132866</Wind Chill></row>
<row _id="365"><Timestamp>2024-07-29 23:55:54</Timestamp><Taupunkt>13.899295774647882</Taupunkt><Temperatur>23.633098591549313</Temperatur><Temperatur2>23.633098591549313</Temperatur2><Wind Chill>23.633098591549313</Wind Chill></row>
</data>
